<?xml version="1.0" encoding="UTF-8" standalone="no" ?>
<gpx xmlns="http://www.topografix.com/GPX/1/1" xmlns:xsi="http://www.w3.org/2001/XMLSchema-instance" xsi:schemaLocation="http://www.topografix.com/GPX/1/1 http://www.topografix.com/GPX/1/1/gpx.xsd" version="1.1" creator="VisuGPX - https://www.visugpx.com">
  <metadata>
    <name>64 - VTT - Monein tout au tour</name>
    <desc><![CDATA[soleil et chaleur pour cette boucle sur les coteaux autour de Monein]]></desc>
  </metadata>
  <trk>
    <name><![CDATA[ACTIVE LOG 001]]></name>
    <trkseg>
      <trkpt lat="43.31574" lon="-0.5864">
        <ele>206.820679</ele>
        <time>2012-06-28T09:28:55Z</time>
      </trkpt>
      <trkpt lat="43.31574" lon="-0.5864">
        <ele>206.820679</ele>
        <time>2012-06-28T09:28:57Z</time>
      </trkpt>
      <trkpt lat="43.31574" lon="-0.5864">
        <ele>205.859497</ele>
        <time>2012-06-28T09:28:58Z</time>
      </trkpt>
      <trkpt lat="43.31575" lon="-0.58649">
        <ele>206.340088</ele>
        <time>2012-06-28T09:29:20Z</time>
      </trkpt>
      <trkpt lat="43.31575" lon="-0.58649">
        <ele>207.301392</ele>
        <time>2012-06-28T09:29:34Z</time>
      </trkpt>
      <trkpt lat="43.31587" lon="-0.58614">
        <ele>204.41748</ele>
        <time>2012-06-28T09:29:43Z</time>
      </trkpt>
      <trkpt lat="43.31586" lon="-0.58589">
        <ele>202.014282</ele>
        <time>2012-06-28T09:29:52Z</time>
      </trkpt>
      <trkpt lat="43.31583" lon="-0.58564">
        <ele>202.014282</ele>
        <time>2012-06-28T09:30:11Z</time>
      </trkpt>
      <trkpt lat="43.31579" lon="-0.58543">
        <ele>201.533569</ele>
        <time>2012-06-28T09:30:17Z</time>
      </trkpt>
      <trkpt lat="43.31552" lon="-0.5854">
        <ele>204.41748</ele>
        <time>2012-06-28T09:30:30Z</time>
      </trkpt>
      <trkpt lat="43.31517" lon="-0.58539">
        <ele>207.782104</ele>
        <time>2012-06-28T09:30:47Z</time>
      </trkpt>
      <trkpt lat="43.31481" lon="-0.5855">
        <ele>210.185425</ele>
        <time>2012-06-28T09:31:05Z</time>
      </trkpt>
      <trkpt lat="43.31479" lon="-0.58551">
        <ele>210.666016</ele>
        <time>2012-06-28T09:31:06Z</time>
      </trkpt>
      <trkpt lat="43.31454" lon="-0.5857">
        <ele>213.069336</ele>
        <time>2012-06-28T09:31:20Z</time>
      </trkpt>
      <trkpt lat="43.31442" lon="-0.58587">
        <ele>214.03064</ele>
        <time>2012-06-28T09:31:28Z</time>
      </trkpt>
      <trkpt lat="43.31408" lon="-0.58604">
        <ele>215.472656</ele>
        <time>2012-06-28T09:31:42Z</time>
      </trkpt>
      <trkpt lat="43.31354" lon="-0.58602">
        <ele>215.472656</ele>
        <time>2012-06-28T09:31:57Z</time>
      </trkpt>
      <trkpt lat="43.31289" lon="-0.58585">
        <ele>216.914673</ele>
        <time>2012-06-28T09:32:12Z</time>
      </trkpt>
      <trkpt lat="43.31256" lon="-0.5857">
        <ele>219.798584</ele>
        <time>2012-06-28T09:32:24Z</time>
      </trkpt>
      <trkpt lat="43.31227" lon="-0.58561">
        <ele>221.240601</ele>
        <time>2012-06-28T09:32:35Z</time>
      </trkpt>
      <trkpt lat="43.31197" lon="-0.58555">
        <ele>223.163208</ele>
        <time>2012-06-28T09:32:44Z</time>
      </trkpt>
      <trkpt lat="43.31155" lon="-0.5855">
        <ele>223.643799</ele>
        <time>2012-06-28T09:32:54Z</time>
      </trkpt>
      <trkpt lat="43.3112" lon="-0.58559">
        <ele>225.085938</ele>
        <time>2012-06-28T09:33:05Z</time>
      </trkpt>
      <trkpt lat="43.31104" lon="-0.58561">
        <ele>227.008545</ele>
        <time>2012-06-28T09:33:12Z</time>
      </trkpt>
      <trkpt lat="43.3109" lon="-0.58565">
        <ele>227.969727</ele>
        <time>2012-06-28T09:33:16Z</time>
      </trkpt>
      <trkpt lat="43.31074" lon="-0.58574">
        <ele>228.450439</ele>
        <time>2012-06-28T09:33:21Z</time>
      </trkpt>
      <trkpt lat="43.31084" lon="-0.58585">
        <ele>230.85376</ele>
        <time>2012-06-28T09:33:28Z</time>
      </trkpt>
      <trkpt lat="43.31118" lon="-0.58612">
        <ele>233.25708</ele>
        <time>2012-06-28T09:33:44Z</time>
      </trkpt>
      <trkpt lat="43.31152" lon="-0.58637">
        <ele>235.179688</ele>
        <time>2012-06-28T09:34:00Z</time>
      </trkpt>
      <trkpt lat="43.31187" lon="-0.5866">
        <ele>237.582886</ele>
        <time>2012-06-28T09:34:16Z</time>
      </trkpt>
      <trkpt lat="43.31232" lon="-0.58683">
        <ele>239.986206</ele>
        <time>2012-06-28T09:34:33Z</time>
      </trkpt>
      <trkpt lat="43.31271" lon="-0.58709">
        <ele>240.947632</ele>
        <time>2012-06-28T09:34:46Z</time>
      </trkpt>
      <trkpt lat="43.31305" lon="-0.58755">
        <ele>242.389648</ele>
        <time>2012-06-28T09:34:59Z</time>
      </trkpt>
      <trkpt lat="43.31355" lon="-0.58799">
        <ele>241.908936</ele>
        <time>2012-06-28T09:35:12Z</time>
      </trkpt>
      <trkpt lat="43.31432" lon="-0.58869">
        <ele>239.024902</ele>
        <time>2012-06-28T09:35:29Z</time>
      </trkpt>
      <trkpt lat="43.31488" lon="-0.58949">
        <ele>236.140991</ele>
        <time>2012-06-28T09:35:41Z</time>
      </trkpt>
      <trkpt lat="43.31527" lon="-0.58996">
        <ele>234.699097</ele>
        <time>2012-06-28T09:35:49Z</time>
      </trkpt>
      <trkpt lat="43.31592" lon="-0.59054">
        <ele>233.25708</ele>
        <time>2012-06-28T09:36:02Z</time>
      </trkpt>
      <trkpt lat="43.31646" lon="-0.591">
        <ele>235.179688</ele>
        <time>2012-06-28T09:36:17Z</time>
      </trkpt>
      <trkpt lat="43.3168" lon="-0.59118">
        <ele>238.544312</ele>
        <time>2012-06-28T09:36:28Z</time>
      </trkpt>
      <trkpt lat="43.31726" lon="-0.59112">
        <ele>240.467041</ele>
        <time>2012-06-28T09:36:42Z</time>
      </trkpt>
      <trkpt lat="43.31758" lon="-0.59096">
        <ele>243.831543</ele>
        <time>2012-06-28T09:36:53Z</time>
      </trkpt>
      <trkpt lat="43.3181" lon="-0.59078">
        <ele>245.273438</ele>
        <time>2012-06-28T09:37:11Z</time>
      </trkpt>
      <trkpt lat="43.3184" lon="-0.59077">
        <ele>241.428223</ele>
        <time>2012-06-28T09:37:16Z</time>
      </trkpt>
      <trkpt lat="43.31866" lon="-0.59078">
        <ele>238.544312</ele>
        <time>2012-06-28T09:37:19Z</time>
      </trkpt>
      <trkpt lat="43.31893" lon="-0.59081">
        <ele>234.218384</ele>
        <time>2012-06-28T09:37:22Z</time>
      </trkpt>
      <trkpt lat="43.31915" lon="-0.59083">
        <ele>231.814941</ele>
        <time>2012-06-28T09:37:25Z</time>
      </trkpt>
      <trkpt lat="43.3193" lon="-0.59074">
        <ele>230.373047</ele>
        <time>2012-06-28T09:37:29Z</time>
      </trkpt>
      <trkpt lat="43.3197" lon="-0.59003">
        <ele>230.85376</ele>
        <time>2012-06-28T09:37:42Z</time>
      </trkpt>
      <trkpt lat="43.31981" lon="-0.58982">
        <ele>231.334351</ele>
        <time>2012-06-28T09:37:46Z</time>
      </trkpt>
      <trkpt lat="43.32008" lon="-0.58964">
        <ele>233.737671</ele>
        <time>2012-06-28T09:37:55Z</time>
      </trkpt>
      <trkpt lat="43.32039" lon="-0.58957">
        <ele>237.102295</ele>
        <time>2012-06-28T09:38:09Z</time>
      </trkpt>
      <trkpt lat="43.32057" lon="-0.5896">
        <ele>239.986206</ele>
        <time>2012-06-28T09:38:17Z</time>
      </trkpt>
      <trkpt lat="43.32079" lon="-0.58967">
        <ele>243.35083</ele>
        <time>2012-06-28T09:38:28Z</time>
      </trkpt>
      <trkpt lat="43.32101" lon="-0.58994">
        <ele>242.389648</ele>
        <time>2012-06-28T09:38:37Z</time>
      </trkpt>
      <trkpt lat="43.32108" lon="-0.59004">
        <ele>242.389648</ele>
        <time>2012-06-28T09:38:39Z</time>
      </trkpt>
      <trkpt lat="43.32123" lon="-0.59028">
        <ele>240.947632</ele>
        <time>2012-06-28T09:38:43Z</time>
      </trkpt>
      <trkpt lat="43.32153" lon="-0.59051">
        <ele>239.024902</ele>
        <time>2012-06-28T09:38:48Z</time>
      </trkpt>
      <trkpt lat="43.32213" lon="-0.59089">
        <ele>238.544312</ele>
        <time>2012-06-28T09:39:01Z</time>
      </trkpt>
      <trkpt lat="43.32254" lon="-0.59111">
        <ele>241.428223</ele>
        <time>2012-06-28T09:39:13Z</time>
      </trkpt>
      <trkpt lat="43.32274" lon="-0.5911">
        <ele>243.35083</ele>
        <time>2012-06-28T09:39:21Z</time>
      </trkpt>
      <trkpt lat="43.32288" lon="-0.59114">
        <ele>246.715454</ele>
        <time>2012-06-28T09:39:28Z</time>
      </trkpt>
      <trkpt lat="43.32292" lon="-0.59116">
        <ele>246.715454</ele>
        <time>2012-06-28T09:39:30Z</time>
      </trkpt>
      <trkpt lat="43.32313" lon="-0.5916">
        <ele>247.676758</ele>
        <time>2012-06-28T09:39:45Z</time>
      </trkpt>
      <trkpt lat="43.32337" lon="-0.59195">
        <ele>249.599487</ele>
        <time>2012-06-28T09:39:56Z</time>
      </trkpt>
      <trkpt lat="43.32363" lon="-0.59205">
        <ele>252.002808</ele>
        <time>2012-06-28T09:40:07Z</time>
      </trkpt>
      <trkpt lat="43.32371" lon="-0.59203">
        <ele>252.483398</ele>
        <time>2012-06-28T09:40:10Z</time>
      </trkpt>
      <trkpt lat="43.32394" lon="-0.59172">
        <ele>250.0802</ele>
        <time>2012-06-28T09:40:18Z</time>
      </trkpt>
      <trkpt lat="43.324" lon="-0.59155">
        <ele>249.118774</ele>
        <time>2012-06-28T09:40:20Z</time>
      </trkpt>
      <trkpt lat="43.32414" lon="-0.59103">
        <ele>248.157593</ele>
        <time>2012-06-28T09:40:26Z</time>
      </trkpt>
      <trkpt lat="43.32429" lon="-0.59058">
        <ele>245.273438</ele>
        <time>2012-06-28T09:40:33Z</time>
      </trkpt>
      <trkpt lat="43.32433" lon="-0.5905">
        <ele>244.792847</ele>
        <time>2012-06-28T09:40:34Z</time>
      </trkpt>
      <trkpt lat="43.3247" lon="-0.59004">
        <ele>241.908936</ele>
        <time>2012-06-28T09:40:40Z</time>
      </trkpt>
      <trkpt lat="43.32487" lon="-0.58993">
        <ele>239.505493</ele>
        <time>2012-06-28T09:40:43Z</time>
      </trkpt>
      <trkpt lat="43.32502" lon="-0.58989">
        <ele>236.140991</ele>
        <time>2012-06-28T09:40:45Z</time>
      </trkpt>
      <trkpt lat="43.32517" lon="-0.58983">
        <ele>232.295776</ele>
        <time>2012-06-28T09:40:47Z</time>
      </trkpt>
      <trkpt lat="43.32524" lon="-0.58978">
        <ele>230.85376</ele>
        <time>2012-06-28T09:40:48Z</time>
      </trkpt>
      <trkpt lat="43.32538" lon="-0.58969">
        <ele>229.411743</ele>
        <time>2012-06-28T09:40:50Z</time>
      </trkpt>
      <trkpt lat="43.32549" lon="-0.58958">
        <ele>227.969727</ele>
        <time>2012-06-28T09:40:52Z</time>
      </trkpt>
      <trkpt lat="43.32556" lon="-0.58942">
        <ele>226.527832</ele>
        <time>2012-06-28T09:40:54Z</time>
      </trkpt>
      <trkpt lat="43.32562" lon="-0.58927">
        <ele>223.163208</ele>
        <time>2012-06-28T09:40:57Z</time>
      </trkpt>
      <trkpt lat="43.32564" lon="-0.58924">
        <ele>223.163208</ele>
        <time>2012-06-28T09:40:58Z</time>
      </trkpt>
      <trkpt lat="43.32566" lon="-0.58923">
        <ele>222.201782</ele>
        <time>2012-06-28T09:40:59Z</time>
      </trkpt>
      <trkpt lat="43.32583" lon="-0.58936">
        <ele>222.201782</ele>
        <time>2012-06-28T09:41:04Z</time>
      </trkpt>
      <trkpt lat="43.32603" lon="-0.58937">
        <ele>221.240601</ele>
        <time>2012-06-28T09:41:08Z</time>
      </trkpt>
      <trkpt lat="43.32676" lon="-0.58916">
        <ele>218.83728</ele>
        <time>2012-06-28T09:41:20Z</time>
      </trkpt>
      <trkpt lat="43.32748" lon="-0.58905">
        <ele>220.759888</ele>
        <time>2012-06-28T09:41:35Z</time>
      </trkpt>
      <trkpt lat="43.32819" lon="-0.58929">
        <ele>222.682495</ele>
        <time>2012-06-28T09:41:51Z</time>
      </trkpt>
      <trkpt lat="43.32869" lon="-0.58957">
        <ele>222.201782</ele>
        <time>2012-06-28T09:42:03Z</time>
      </trkpt>
      <trkpt lat="43.32877" lon="-0.58963">
        <ele>222.201782</ele>
        <time>2012-06-28T09:42:05Z</time>
      </trkpt>
      <trkpt lat="43.32926" lon="-0.58994">
        <ele>226.047119</ele>
        <time>2012-06-28T09:42:20Z</time>
      </trkpt>
      <trkpt lat="43.32953" lon="-0.59013">
        <ele>223.163208</ele>
        <time>2012-06-28T09:42:27Z</time>
      </trkpt>
      <trkpt lat="43.3297" lon="-0.59029">
        <ele>221.721191</ele>
        <time>2012-06-28T09:42:30Z</time>
      </trkpt>
      <trkpt lat="43.32982" lon="-0.5904">
        <ele>220.759888</ele>
        <time>2012-06-28T09:42:32Z</time>
      </trkpt>
      <trkpt lat="43.33019" lon="-0.59054">
        <ele>216.914673</ele>
        <time>2012-06-28T09:42:37Z</time>
      </trkpt>
      <trkpt lat="43.33052" lon="-0.59057">
        <ele>213.069336</ele>
        <time>2012-06-28T09:42:41Z</time>
      </trkpt>
      <trkpt lat="43.33074" lon="-0.59055">
        <ele>209.704834</ele>
        <time>2012-06-28T09:42:44Z</time>
      </trkpt>
      <trkpt lat="43.33081" lon="-0.59053">
        <ele>209.704834</ele>
        <time>2012-06-28T09:42:45Z</time>
      </trkpt>
      <trkpt lat="43.33104" lon="-0.59048">
        <ele>208.743408</ele>
        <time>2012-06-28T09:42:50Z</time>
      </trkpt>
      <trkpt lat="43.33164" lon="-0.59085">
        <ele>211.627441</ele>
        <time>2012-06-28T09:43:06Z</time>
      </trkpt>
      <trkpt lat="43.33201" lon="-0.59114">
        <ele>213.069336</ele>
        <time>2012-06-28T09:43:18Z</time>
      </trkpt>
      <trkpt lat="43.33239" lon="-0.59146">
        <ele>212.588623</ele>
        <time>2012-06-28T09:43:29Z</time>
      </trkpt>
      <trkpt lat="43.33272" lon="-0.59175">
        <ele>212.108032</ele>
        <time>2012-06-28T09:43:40Z</time>
      </trkpt>
      <trkpt lat="43.33319" lon="-0.59216">
        <ele>213.069336</ele>
        <time>2012-06-28T09:43:53Z</time>
      </trkpt>
      <trkpt lat="43.33338" lon="-0.59236">
        <ele>213.069336</ele>
        <time>2012-06-28T09:43:59Z</time>
      </trkpt>
      <trkpt lat="43.33384" lon="-0.59289">
        <ele>213.069336</ele>
        <time>2012-06-28T09:44:14Z</time>
      </trkpt>
      <trkpt lat="43.33409" lon="-0.59349">
        <ele>214.991943</ele>
        <time>2012-06-28T09:44:26Z</time>
      </trkpt>
      <trkpt lat="43.33428" lon="-0.59397">
        <ele>215.953247</ele>
        <time>2012-06-28T09:44:38Z</time>
      </trkpt>
      <trkpt lat="43.33439" lon="-0.59427">
        <ele>214.51123</ele>
        <time>2012-06-28T09:44:43Z</time>
      </trkpt>
      <trkpt lat="43.33445" lon="-0.59443">
        <ele>214.03064</ele>
        <time>2012-06-28T09:44:45Z</time>
      </trkpt>
      <trkpt lat="43.33455" lon="-0.59461">
        <ele>212.588623</ele>
        <time>2012-06-28T09:44:48Z</time>
      </trkpt>
      <trkpt lat="43.33475" lon="-0.595">
        <ele>211.146729</ele>
        <time>2012-06-28T09:44:54Z</time>
      </trkpt>
      <trkpt lat="43.33498" lon="-0.59531">
        <ele>210.666016</ele>
        <time>2012-06-28T09:45:00Z</time>
      </trkpt>
      <trkpt lat="43.33513" lon="-0.59546">
        <ele>210.185425</ele>
        <time>2012-06-28T09:45:04Z</time>
      </trkpt>
      <trkpt lat="43.33546" lon="-0.59574">
        <ele>207.782104</ele>
        <time>2012-06-28T09:45:12Z</time>
      </trkpt>
      <trkpt lat="43.33561" lon="-0.59565">
        <ele>205.859497</ele>
        <time>2012-06-28T09:45:16Z</time>
      </trkpt>
      <trkpt lat="43.33603" lon="-0.5954">
        <ele>203.456177</ele>
        <time>2012-06-28T09:45:22Z</time>
      </trkpt>
      <trkpt lat="43.33621" lon="-0.5953">
        <ele>200.572266</ele>
        <time>2012-06-28T09:45:24Z</time>
      </trkpt>
      <trkpt lat="43.3365" lon="-0.59491">
        <ele>196.246338</ele>
        <time>2012-06-28T09:45:28Z</time>
      </trkpt>
      <trkpt lat="43.33662" lon="-0.59463">
        <ele>190.958984</ele>
        <time>2012-06-28T09:45:30Z</time>
      </trkpt>
      <trkpt lat="43.33675" lon="-0.59436">
        <ele>187.11377</ele>
        <time>2012-06-28T09:45:32Z</time>
      </trkpt>
      <trkpt lat="43.33703" lon="-0.59398">
        <ele>183.749023</ele>
        <time>2012-06-28T09:45:35Z</time>
      </trkpt>
      <trkpt lat="43.33727" lon="-0.5938">
        <ele>181.345825</ele>
        <time>2012-06-28T09:45:37Z</time>
      </trkpt>
      <trkpt lat="43.33777" lon="-0.5935">
        <ele>177.981201</ele>
        <time>2012-06-28T09:45:41Z</time>
      </trkpt>
      <trkpt lat="43.33788" lon="-0.59342">
        <ele>177.981201</ele>
        <time>2012-06-28T09:45:42Z</time>
      </trkpt>
      <trkpt lat="43.33833" lon="-0.5931">
        <ele>174.135864</ele>
        <time>2012-06-28T09:45:47Z</time>
      </trkpt>
      <trkpt lat="43.33845" lon="-0.59303">
        <ele>173.655273</ele>
        <time>2012-06-28T09:45:49Z</time>
      </trkpt>
      <trkpt lat="43.33867" lon="-0.59323">
        <ele>172.69397</ele>
        <time>2012-06-28T09:45:56Z</time>
      </trkpt>
      <trkpt lat="43.33867" lon="-0.59334">
        <ele>173.655273</ele>
        <time>2012-06-28T09:45:58Z</time>
      </trkpt>
      <trkpt lat="43.33867" lon="-0.59343">
        <ele>174.616577</ele>
        <time>2012-06-28T09:46:00Z</time>
      </trkpt>
      <trkpt lat="43.33872" lon="-0.59383">
        <ele>177.50061</ele>
        <time>2012-06-28T09:46:11Z</time>
      </trkpt>
      <trkpt lat="43.33891" lon="-0.59416">
        <ele>179.423218</ele>
        <time>2012-06-28T09:46:24Z</time>
      </trkpt>
      <trkpt lat="43.33945" lon="-0.59419">
        <ele>182.307129</ele>
        <time>2012-06-28T09:46:43Z</time>
      </trkpt>
      <trkpt lat="43.33996" lon="-0.59423">
        <ele>183.749023</ele>
        <time>2012-06-28T09:47:04Z</time>
      </trkpt>
      <trkpt lat="43.3402" lon="-0.59417">
        <ele>187.11377</ele>
        <time>2012-06-28T09:47:15Z</time>
      </trkpt>
      <trkpt lat="43.34029" lon="-0.59414">
        <ele>188.075073</ele>
        <time>2012-06-28T09:47:19Z</time>
      </trkpt>
      <trkpt lat="43.34049" lon="-0.59406">
        <ele>191.920288</ele>
        <time>2012-06-28T09:47:29Z</time>
      </trkpt>
      <trkpt lat="43.34051" lon="-0.59406">
        <ele>191.439575</ele>
        <time>2012-06-28T09:47:30Z</time>
      </trkpt>
      <trkpt lat="43.34057" lon="-0.59404">
        <ele>193.362305</ele>
        <time>2012-06-28T09:47:34Z</time>
      </trkpt>
      <trkpt lat="43.3408" lon="-0.59396">
        <ele>197.20752</ele>
        <time>2012-06-28T09:47:48Z</time>
      </trkpt>
      <trkpt lat="43.3411" lon="-0.59403">
        <ele>198.649536</ele>
        <time>2012-06-28T09:48:05Z</time>
      </trkpt>
      <trkpt lat="43.34138" lon="-0.59438">
        <ele>198.168945</ele>
        <time>2012-06-28T09:48:16Z</time>
      </trkpt>
      <trkpt lat="43.34156" lon="-0.59461">
        <ele>197.20752</ele>
        <time>2012-06-28T09:48:22Z</time>
      </trkpt>
      <trkpt lat="43.34183" lon="-0.59487">
        <ele>193.843018</ele>
        <time>2012-06-28T09:48:29Z</time>
      </trkpt>
      <trkpt lat="43.34193" lon="-0.59495">
        <ele>191.920288</ele>
        <time>2012-06-28T09:48:31Z</time>
      </trkpt>
      <trkpt lat="43.34226" lon="-0.59499">
        <ele>189.516968</ele>
        <time>2012-06-28T09:48:39Z</time>
      </trkpt>
      <trkpt lat="43.34275" lon="-0.5949">
        <ele>189.516968</ele>
        <time>2012-06-28T09:48:50Z</time>
      </trkpt>
      <trkpt lat="43.34292" lon="-0.59487">
        <ele>189.516968</ele>
        <time>2012-06-28T09:48:54Z</time>
      </trkpt>
      <trkpt lat="43.34353" lon="-0.595">
        <ele>186.633179</ele>
        <time>2012-06-28T09:49:05Z</time>
      </trkpt>
      <trkpt lat="43.3436" lon="-0.59501">
        <ele>186.633179</ele>
        <time>2012-06-28T09:49:07Z</time>
      </trkpt>
      <trkpt lat="43.34374" lon="-0.59504">
        <ele>187.11377</ele>
        <time>2012-06-28T09:49:10Z</time>
      </trkpt>
      <trkpt lat="43.34396" lon="-0.59509">
        <ele>188.075073</ele>
        <time>2012-06-28T09:49:15Z</time>
      </trkpt>
      <trkpt lat="43.34439" lon="-0.59528">
        <ele>186.152466</ele>
        <time>2012-06-28T09:49:26Z</time>
      </trkpt>
      <trkpt lat="43.34448" lon="-0.59529">
        <ele>184.229858</ele>
        <time>2012-06-28T09:49:28Z</time>
      </trkpt>
      <trkpt lat="43.34501" lon="-0.59557">
        <ele>182.307129</ele>
        <time>2012-06-28T09:49:39Z</time>
      </trkpt>
      <trkpt lat="43.34534" lon="-0.59564">
        <ele>180.384521</ele>
        <time>2012-06-28T09:49:45Z</time>
      </trkpt>
      <trkpt lat="43.34546" lon="-0.5956">
        <ele>179.903809</ele>
        <time>2012-06-28T09:49:47Z</time>
      </trkpt>
      <trkpt lat="43.34565" lon="-0.59558">
        <ele>177.981201</ele>
        <time>2012-06-28T09:49:50Z</time>
      </trkpt>
      <trkpt lat="43.34579" lon="-0.59553">
        <ele>177.981201</ele>
        <time>2012-06-28T09:49:52Z</time>
      </trkpt>
      <trkpt lat="43.34592" lon="-0.59547">
        <ele>177.02002</ele>
        <time>2012-06-28T09:49:54Z</time>
      </trkpt>
      <trkpt lat="43.34613" lon="-0.59549">
        <ele>176.058594</ele>
        <time>2012-06-28T09:49:58Z</time>
      </trkpt>
      <trkpt lat="43.34668" lon="-0.59608">
        <ele>175.577881</ele>
        <time>2012-06-28T09:50:11Z</time>
      </trkpt>
      <trkpt lat="43.34686" lon="-0.59618">
        <ele>175.577881</ele>
        <time>2012-06-28T09:50:16Z</time>
      </trkpt>
      <trkpt lat="43.34724" lon="-0.59619">
        <ele>173.655273</ele>
        <time>2012-06-28T09:50:27Z</time>
      </trkpt>
      <trkpt lat="43.34728" lon="-0.59617">
        <ele>173.655273</ele>
        <time>2012-06-28T09:50:28Z</time>
      </trkpt>
      <trkpt lat="43.34751" lon="-0.59622">
        <ele>173.174683</ele>
        <time>2012-06-28T09:50:33Z</time>
      </trkpt>
      <trkpt lat="43.3478" lon="-0.5965">
        <ele>173.174683</ele>
        <time>2012-06-28T09:50:40Z</time>
      </trkpt>
      <trkpt lat="43.34838" lon="-0.59675">
        <ele>174.135864</ele>
        <time>2012-06-28T09:50:55Z</time>
      </trkpt>
      <trkpt lat="43.34866" lon="-0.59691">
        <ele>174.616577</ele>
        <time>2012-06-28T09:51:03Z</time>
      </trkpt>
      <trkpt lat="43.34941" lon="-0.59713">
        <ele>173.174683</ele>
        <time>2012-06-28T09:51:17Z</time>
      </trkpt>
      <trkpt lat="43.34954" lon="-0.59719">
        <ele>172.69397</ele>
        <time>2012-06-28T09:51:19Z</time>
      </trkpt>
      <trkpt lat="43.34994" lon="-0.59726">
        <ele>171.252075</ele>
        <time>2012-06-28T09:51:25Z</time>
      </trkpt>
      <trkpt lat="43.35067" lon="-0.59742">
        <ele>170.771362</ele>
        <time>2012-06-28T09:51:38Z</time>
      </trkpt>
      <trkpt lat="43.35088" lon="-0.59746">
        <ele>170.771362</ele>
        <time>2012-06-28T09:51:42Z</time>
      </trkpt>
      <trkpt lat="43.35099" lon="-0.59749">
        <ele>169.810059</ele>
        <time>2012-06-28T09:51:44Z</time>
      </trkpt>
      <trkpt lat="43.35128" lon="-0.59766">
        <ele>168.368042</ele>
        <time>2012-06-28T09:51:50Z</time>
      </trkpt>
      <trkpt lat="43.35181" lon="-0.5979">
        <ele>170.290649</ele>
        <time>2012-06-28T09:52:02Z</time>
      </trkpt>
      <trkpt lat="43.35241" lon="-0.59819">
        <ele>171.252075</ele>
        <time>2012-06-28T09:52:18Z</time>
      </trkpt>
      <trkpt lat="43.35288" lon="-0.59839">
        <ele>171.732666</ele>
        <time>2012-06-28T09:52:31Z</time>
      </trkpt>
      <trkpt lat="43.35346" lon="-0.5985">
        <ele>175.09729</ele>
        <time>2012-06-28T09:52:45Z</time>
      </trkpt>
      <trkpt lat="43.35388" lon="-0.59862">
        <ele>175.09729</ele>
        <time>2012-06-28T09:52:57Z</time>
      </trkpt>
      <trkpt lat="43.35402" lon="-0.59867">
        <ele>173.174683</ele>
        <time>2012-06-28T09:53:00Z</time>
      </trkpt>
      <trkpt lat="43.35424" lon="-0.59884">
        <ele>172.69397</ele>
        <time>2012-06-28T09:53:04Z</time>
      </trkpt>
      <trkpt lat="43.35439" lon="-0.59892">
        <ele>170.771362</ele>
        <time>2012-06-28T09:53:07Z</time>
      </trkpt>
      <trkpt lat="43.3546" lon="-0.59911">
        <ele>169.810059</ele>
        <time>2012-06-28T09:53:11Z</time>
      </trkpt>
      <trkpt lat="43.35488" lon="-0.59961">
        <ele>170.771362</ele>
        <time>2012-06-28T09:53:23Z</time>
      </trkpt>
      <trkpt lat="43.35517" lon="-0.5999">
        <ele>168.368042</ele>
        <time>2012-06-28T09:53:33Z</time>
      </trkpt>
      <trkpt lat="43.35529" lon="-0.59997">
        <ele>164.522705</ele>
        <time>2012-06-28T09:53:36Z</time>
      </trkpt>
      <trkpt lat="43.35538" lon="-0.60019">
        <ele>163.080811</ele>
        <time>2012-06-28T09:53:41Z</time>
      </trkpt>
      <trkpt lat="43.35536" lon="-0.60076">
        <ele>159.235474</ele>
        <time>2012-06-28T09:53:51Z</time>
      </trkpt>
      <trkpt lat="43.35537" lon="-0.60081">
        <ele>158.754761</ele>
        <time>2012-06-28T09:53:52Z</time>
      </trkpt>
      <trkpt lat="43.35542" lon="-0.6012">
        <ele>153.948364</ele>
        <time>2012-06-28T09:53:57Z</time>
      </trkpt>
      <trkpt lat="43.35542" lon="-0.60127">
        <ele>153.948364</ele>
        <time>2012-06-28T09:53:58Z</time>
      </trkpt>
      <trkpt lat="43.35556" lon="-0.60151">
        <ele>151.064209</ele>
        <time>2012-06-28T09:54:02Z</time>
      </trkpt>
      <trkpt lat="43.35573" lon="-0.6017">
        <ele>148.661011</ele>
        <time>2012-06-28T09:54:05Z</time>
      </trkpt>
      <trkpt lat="43.35579" lon="-0.60177">
        <ele>148.661011</ele>
        <time>2012-06-28T09:54:06Z</time>
      </trkpt>
      <trkpt lat="43.35603" lon="-0.60193">
        <ele>150.103027</ele>
        <time>2012-06-28T09:54:14Z</time>
      </trkpt>
      <trkpt lat="43.35616" lon="-0.60202">
        <ele>154.428955</ele>
        <time>2012-06-28T09:54:24Z</time>
      </trkpt>
      <trkpt lat="43.35618" lon="-0.60203">
        <ele>154.428955</ele>
        <time>2012-06-28T09:54:26Z</time>
      </trkpt>
      <trkpt lat="43.35622" lon="-0.60205">
        <ele>156.351562</ele>
        <time>2012-06-28T09:54:29Z</time>
      </trkpt>
      <trkpt lat="43.35624" lon="-0.60199">
        <ele>155.870972</ele>
        <time>2012-06-28T09:54:33Z</time>
      </trkpt>
      <trkpt lat="43.35628" lon="-0.60197">
        <ele>157.793579</ele>
        <time>2012-06-28T09:54:38Z</time>
      </trkpt>
      <trkpt lat="43.3564" lon="-0.60221">
        <ele>160.67749</ele>
        <time>2012-06-28T09:54:52Z</time>
      </trkpt>
      <trkpt lat="43.35652" lon="-0.6023">
        <ele>164.042114</ele>
        <time>2012-06-28T09:55:00Z</time>
      </trkpt>
      <trkpt lat="43.35652" lon="-0.60231">
        <ele>164.042114</ele>
        <time>2012-06-28T09:55:01Z</time>
      </trkpt>
      <trkpt lat="43.35653" lon="-0.60232">
        <ele>163.561523</ele>
        <time>2012-06-28T09:55:02Z</time>
      </trkpt>
      <trkpt lat="43.35674" lon="-0.60235">
        <ele>165.964722</ele>
        <time>2012-06-28T09:55:17Z</time>
      </trkpt>
      <trkpt lat="43.35678" lon="-0.60235">
        <ele>166.926025</ele>
        <time>2012-06-28T09:55:19Z</time>
      </trkpt>
      <trkpt lat="43.35701" lon="-0.60247">
        <ele>170.771362</ele>
        <time>2012-06-28T09:55:35Z</time>
      </trkpt>
      <trkpt lat="43.35719" lon="-0.6026">
        <ele>172.69397</ele>
        <time>2012-06-28T09:55:46Z</time>
      </trkpt>
      <trkpt lat="43.35729" lon="-0.6027">
        <ele>174.616577</ele>
        <time>2012-06-28T09:55:54Z</time>
      </trkpt>
      <trkpt lat="43.35732" lon="-0.60284">
        <ele>175.09729</ele>
        <time>2012-06-28T09:56:00Z</time>
      </trkpt>
      <trkpt lat="43.35749" lon="-0.60316">
        <ele>176.539307</ele>
        <time>2012-06-28T09:56:14Z</time>
      </trkpt>
      <trkpt lat="43.35766" lon="-0.60326">
        <ele>175.09729</ele>
        <time>2012-06-28T09:56:17Z</time>
      </trkpt>
      <trkpt lat="43.35801" lon="-0.60342">
        <ele>171.732666</ele>
        <time>2012-06-28T09:56:22Z</time>
      </trkpt>
      <trkpt lat="43.35808" lon="-0.60347">
        <ele>171.252075</ele>
        <time>2012-06-28T09:56:23Z</time>
      </trkpt>
      <trkpt lat="43.35845" lon="-0.60376">
        <ele>169.329468</ele>
        <time>2012-06-28T09:56:29Z</time>
      </trkpt>
      <trkpt lat="43.35854" lon="-0.60385">
        <ele>168.848755</ele>
        <time>2012-06-28T09:56:31Z</time>
      </trkpt>
      <trkpt lat="43.35881" lon="-0.60395">
        <ele>166.926025</ele>
        <time>2012-06-28T09:56:36Z</time>
      </trkpt>
      <trkpt lat="43.35907" lon="-0.60405">
        <ele>163.561523</ele>
        <time>2012-06-28T09:56:41Z</time>
      </trkpt>
      <trkpt lat="43.35912" lon="-0.60406">
        <ele>163.080811</ele>
        <time>2012-06-28T09:56:42Z</time>
      </trkpt>
      <trkpt lat="43.35927" lon="-0.60408">
        <ele>161.158203</ele>
        <time>2012-06-28T09:56:46Z</time>
      </trkpt>
      <trkpt lat="43.35934" lon="-0.6041">
        <ele>157.793579</ele>
        <time>2012-06-28T09:56:48Z</time>
      </trkpt>
      <trkpt lat="43.35948" lon="-0.60418">
        <ele>154.428955</ele>
        <time>2012-06-28T09:56:53Z</time>
      </trkpt>
      <trkpt lat="43.35957" lon="-0.60423">
        <ele>152.025757</ele>
        <time>2012-06-28T09:56:56Z</time>
      </trkpt>
      <trkpt lat="43.35968" lon="-0.60438">
        <ele>149.622314</ele>
        <time>2012-06-28T09:57:00Z</time>
      </trkpt>
      <trkpt lat="43.35971" lon="-0.6045">
        <ele>148.661011</ele>
        <time>2012-06-28T09:57:02Z</time>
      </trkpt>
      <trkpt lat="43.35974" lon="-0.60469">
        <ele>145.7771</ele>
        <time>2012-06-28T09:57:05Z</time>
      </trkpt>
      <trkpt lat="43.35976" lon="-0.60494">
        <ele>141.931763</ele>
        <time>2012-06-28T09:57:09Z</time>
      </trkpt>
      <trkpt lat="43.3597" lon="-0.60514">
        <ele>138.086548</ele>
        <time>2012-06-28T09:57:13Z</time>
      </trkpt>
      <trkpt lat="43.35968" lon="-0.6052">
        <ele>138.567261</ele>
        <time>2012-06-28T09:57:14Z</time>
      </trkpt>
      <trkpt lat="43.35953" lon="-0.6054">
        <ele>136.644653</ele>
        <time>2012-06-28T09:57:19Z</time>
      </trkpt>
      <trkpt lat="43.35937" lon="-0.60559">
        <ele>137.125244</ele>
        <time>2012-06-28T09:57:23Z</time>
      </trkpt>
      <trkpt lat="43.35917" lon="-0.60581">
        <ele>135.683105</ele>
        <time>2012-06-28T09:57:28Z</time>
      </trkpt>
      <trkpt lat="43.35884" lon="-0.6061">
        <ele>133.279907</ele>
        <time>2012-06-28T09:57:35Z</time>
      </trkpt>
      <trkpt lat="43.35878" lon="-0.60622">
        <ele>131.837891</ele>
        <time>2012-06-28T09:57:38Z</time>
      </trkpt>
      <trkpt lat="43.35872" lon="-0.60646">
        <ele>127.992554</ele>
        <time>2012-06-28T09:57:42Z</time>
      </trkpt>
      <trkpt lat="43.35862" lon="-0.60676">
        <ele>125.108765</ele>
        <time>2012-06-28T09:57:47Z</time>
      </trkpt>
      <trkpt lat="43.35854" lon="-0.60686">
        <ele>123.186157</ele>
        <time>2012-06-28T09:57:51Z</time>
      </trkpt>
      <trkpt lat="43.35875" lon="-0.60712">
        <ele>123.186157</ele>
        <time>2012-06-28T09:58:00Z</time>
      </trkpt>
      <trkpt lat="43.35938" lon="-0.60747">
        <ele>122.705444</ele>
        <time>2012-06-28T09:58:16Z</time>
      </trkpt>
      <trkpt lat="43.35946" lon="-0.60754">
        <ele>121.744141</ele>
        <time>2012-06-28T09:58:18Z</time>
      </trkpt>
      <trkpt lat="43.35951" lon="-0.60794">
        <ele>120.782837</ele>
        <time>2012-06-28T09:58:25Z</time>
      </trkpt>
      <trkpt lat="43.35953" lon="-0.6082">
        <ele>119.821411</ele>
        <time>2012-06-28T09:58:30Z</time>
      </trkpt>
      <trkpt lat="43.3597" lon="-0.60845">
        <ele>120.782837</ele>
        <time>2012-06-28T09:58:36Z</time>
      </trkpt>
      <trkpt lat="43.36006" lon="-0.60864">
        <ele>121.26355</ele>
        <time>2012-06-28T09:58:47Z</time>
      </trkpt>
      <trkpt lat="43.36016" lon="-0.60862">
        <ele>120.782837</ele>
        <time>2012-06-28T09:58:50Z</time>
      </trkpt>
      <trkpt lat="43.36035" lon="-0.60855">
        <ele>121.744141</ele>
        <time>2012-06-28T09:58:54Z</time>
      </trkpt>
      <trkpt lat="43.36099" lon="-0.60831">
        <ele>120.782837</ele>
        <time>2012-06-28T09:59:07Z</time>
      </trkpt>
      <trkpt lat="43.36124" lon="-0.60822">
        <ele>120.302124</ele>
        <time>2012-06-28T09:59:12Z</time>
      </trkpt>
      <trkpt lat="43.36148" lon="-0.60835">
        <ele>121.26355</ele>
        <time>2012-06-28T09:59:18Z</time>
      </trkpt>
      <trkpt lat="43.36191" lon="-0.60932">
        <ele>121.744141</ele>
        <time>2012-06-28T09:59:35Z</time>
      </trkpt>
      <trkpt lat="43.36195" lon="-0.60943">
        <ele>121.26355</ele>
        <time>2012-06-28T09:59:37Z</time>
      </trkpt>
      <trkpt lat="43.36201" lon="-0.60974">
        <ele>121.744141</ele>
        <time>2012-06-28T09:59:42Z</time>
      </trkpt>
      <trkpt lat="43.36203" lon="-0.61024">
        <ele>120.302124</ele>
        <time>2012-06-28T09:59:49Z</time>
      </trkpt>
      <trkpt lat="43.36204" lon="-0.61054">
        <ele>119.821411</ele>
        <time>2012-06-28T09:59:53Z</time>
      </trkpt>
      <trkpt lat="43.36213" lon="-0.61176">
        <ele>119.34082</ele>
        <time>2012-06-28T10:00:10Z</time>
      </trkpt>
      <trkpt lat="43.36216" lon="-0.61238">
        <ele>119.821411</ele>
        <time>2012-06-28T10:00:20Z</time>
      </trkpt>
      <trkpt lat="43.36223" lon="-0.6126">
        <ele>120.302124</ele>
        <time>2012-06-28T10:00:24Z</time>
      </trkpt>
      <trkpt lat="43.36239" lon="-0.6131">
        <ele>119.821411</ele>
        <time>2012-06-28T10:00:32Z</time>
      </trkpt>
      <trkpt lat="43.36247" lon="-0.61345">
        <ele>119.34082</ele>
        <time>2012-06-28T10:00:37Z</time>
      </trkpt>
      <trkpt lat="43.3625" lon="-0.61367">
        <ele>119.34082</ele>
        <time>2012-06-28T10:00:40Z</time>
      </trkpt>
      <trkpt lat="43.36256" lon="-0.61387">
        <ele>118.860107</ele>
        <time>2012-06-28T10:00:43Z</time>
      </trkpt>
      <trkpt lat="43.36275" lon="-0.61417">
        <ele>118.860107</ele>
        <time>2012-06-28T10:00:49Z</time>
      </trkpt>
      <trkpt lat="43.36283" lon="-0.61433">
        <ele>118.860107</ele>
        <time>2012-06-28T10:00:52Z</time>
      </trkpt>
      <trkpt lat="43.36291" lon="-0.61459">
        <ele>118.379395</ele>
        <time>2012-06-28T10:00:56Z</time>
      </trkpt>
      <trkpt lat="43.36297" lon="-0.61473">
        <ele>118.379395</ele>
        <time>2012-06-28T10:00:58Z</time>
      </trkpt>
      <trkpt lat="43.36314" lon="-0.61499">
        <ele>118.379395</ele>
        <time>2012-06-28T10:01:03Z</time>
      </trkpt>
      <trkpt lat="43.36349" lon="-0.61516">
        <ele>118.860107</ele>
        <time>2012-06-28T10:01:13Z</time>
      </trkpt>
      <trkpt lat="43.36396" lon="-0.61536">
        <ele>118.860107</ele>
        <time>2012-06-28T10:01:25Z</time>
      </trkpt>
      <trkpt lat="43.36409" lon="-0.61545">
        <ele>118.379395</ele>
        <time>2012-06-28T10:01:28Z</time>
      </trkpt>
      <trkpt lat="43.36459" lon="-0.61572">
        <ele>120.302124</ele>
        <time>2012-06-28T10:01:40Z</time>
      </trkpt>
      <trkpt lat="43.36488" lon="-0.61586">
        <ele>119.34082</ele>
        <time>2012-06-28T10:01:48Z</time>
      </trkpt>
      <trkpt lat="43.36499" lon="-0.61593">
        <ele>119.34082</ele>
        <time>2012-06-28T10:01:50Z</time>
      </trkpt>
      <trkpt lat="43.36523" lon="-0.61602">
        <ele>118.379395</ele>
        <time>2012-06-28T10:01:54Z</time>
      </trkpt>
      <trkpt lat="43.36539" lon="-0.61603">
        <ele>118.379395</ele>
        <time>2012-06-28T10:01:57Z</time>
      </trkpt>
      <trkpt lat="43.36559" lon="-0.61601">
        <ele>119.34082</ele>
        <time>2012-06-28T10:02:01Z</time>
      </trkpt>
      <trkpt lat="43.36596" lon="-0.61601">
        <ele>118.860107</ele>
        <time>2012-06-28T10:02:09Z</time>
      </trkpt>
      <trkpt lat="43.36637" lon="-0.61599">
        <ele>118.860107</ele>
        <time>2012-06-28T10:02:17Z</time>
      </trkpt>
      <trkpt lat="43.36669" lon="-0.61606">
        <ele>118.379395</ele>
        <time>2012-06-28T10:02:23Z</time>
      </trkpt>
      <trkpt lat="43.3668" lon="-0.61606">
        <ele>117.898804</ele>
        <time>2012-06-28T10:02:25Z</time>
      </trkpt>
      <trkpt lat="43.36701" lon="-0.61596">
        <ele>118.379395</ele>
        <time>2012-06-28T10:02:29Z</time>
      </trkpt>
      <trkpt lat="43.3672" lon="-0.61571">
        <ele>117.898804</ele>
        <time>2012-06-28T10:02:34Z</time>
      </trkpt>
      <trkpt lat="43.3673" lon="-0.6152">
        <ele>119.821411</ele>
        <time>2012-06-28T10:02:44Z</time>
      </trkpt>
      <trkpt lat="43.36734" lon="-0.61469">
        <ele>123.186157</ele>
        <time>2012-06-28T10:02:56Z</time>
      </trkpt>
      <trkpt lat="43.36738" lon="-0.61457">
        <ele>125.589355</ele>
        <time>2012-06-28T10:03:00Z</time>
      </trkpt>
      <trkpt lat="43.36743" lon="-0.61447">
        <ele>126.069946</ele>
        <time>2012-06-28T10:03:04Z</time>
      </trkpt>
      <trkpt lat="43.36749" lon="-0.61423">
        <ele>127.992554</ele>
        <time>2012-06-28T10:03:12Z</time>
      </trkpt>
      <trkpt lat="43.36763" lon="-0.61394">
        <ele>131.837891</ele>
        <time>2012-06-28T10:03:24Z</time>
      </trkpt>
      <trkpt lat="43.36765" lon="-0.61392">
        <ele>131.3573</ele>
        <time>2012-06-28T10:03:25Z</time>
      </trkpt>
      <trkpt lat="43.36781" lon="-0.61378">
        <ele>132.318604</ele>
        <time>2012-06-28T10:03:33Z</time>
      </trkpt>
      <trkpt lat="43.3679" lon="-0.61371">
        <ele>134.241211</ele>
        <time>2012-06-28T10:03:39Z</time>
      </trkpt>
      <trkpt lat="43.36804" lon="-0.61387">
        <ele>136.644653</ele>
        <time>2012-06-28T10:03:51Z</time>
      </trkpt>
      <trkpt lat="43.36809" lon="-0.6139">
        <ele>138.086548</ele>
        <time>2012-06-28T10:03:56Z</time>
      </trkpt>
      <trkpt lat="43.36828" lon="-0.61388">
        <ele>140.009155</ele>
        <time>2012-06-28T10:04:08Z</time>
      </trkpt>
      <trkpt lat="43.36839" lon="-0.61399">
        <ele>142.893066</ele>
        <time>2012-06-28T10:04:20Z</time>
      </trkpt>
      <trkpt lat="43.36847" lon="-0.61406">
        <ele>144.335205</ele>
        <time>2012-06-28T10:04:27Z</time>
      </trkpt>
      <trkpt lat="43.36865" lon="-0.61422">
        <ele>147.218994</ele>
        <time>2012-06-28T10:04:40Z</time>
      </trkpt>
      <trkpt lat="43.36866" lon="-0.61423">
        <ele>147.218994</ele>
        <time>2012-06-28T10:04:41Z</time>
      </trkpt>
      <trkpt lat="43.36887" lon="-0.61451">
        <ele>148.661011</ele>
        <time>2012-06-28T10:04:55Z</time>
      </trkpt>
      <trkpt lat="43.3689" lon="-0.61453">
        <ele>148.661011</ele>
        <time>2012-06-28T10:04:56Z</time>
      </trkpt>
      <trkpt lat="43.36896" lon="-0.61459">
        <ele>148.661011</ele>
        <time>2012-06-28T10:04:59Z</time>
      </trkpt>
      <trkpt lat="43.36905" lon="-0.61455">
        <ele>149.141602</ele>
        <time>2012-06-28T10:05:03Z</time>
      </trkpt>
      <trkpt lat="43.36914" lon="-0.61437">
        <ele>150.103027</ele>
        <time>2012-06-28T10:05:09Z</time>
      </trkpt>
      <trkpt lat="43.36922" lon="-0.61433">
        <ele>150.103027</ele>
        <time>2012-06-28T10:05:13Z</time>
      </trkpt>
      <trkpt lat="43.36927" lon="-0.61434">
        <ele>151.064209</ele>
        <time>2012-06-28T10:05:15Z</time>
      </trkpt>
      <trkpt lat="43.36936" lon="-0.61439">
        <ele>151.544922</ele>
        <time>2012-06-28T10:05:19Z</time>
      </trkpt>
      <trkpt lat="43.36974" lon="-0.61446">
        <ele>152.025757</ele>
        <time>2012-06-28T10:05:33Z</time>
      </trkpt>
      <trkpt lat="43.36993" lon="-0.61461">
        <ele>150.103027</ele>
        <time>2012-06-28T10:05:38Z</time>
      </trkpt>
      <trkpt lat="43.37012" lon="-0.61469">
        <ele>149.622314</ele>
        <time>2012-06-28T10:05:41Z</time>
      </trkpt>
      <trkpt lat="43.3703" lon="-0.61477">
        <ele>148.18042</ele>
        <time>2012-06-28T10:05:44Z</time>
      </trkpt>
      <trkpt lat="43.37077" lon="-0.61478">
        <ele>143.85437</ele>
        <time>2012-06-28T10:05:52Z</time>
      </trkpt>
      <trkpt lat="43.37087" lon="-0.61479">
        <ele>142.893066</ele>
        <time>2012-06-28T10:05:54Z</time>
      </trkpt>
      <trkpt lat="43.37108" lon="-0.61486">
        <ele>141.45105</ele>
        <time>2012-06-28T10:05:58Z</time>
      </trkpt>
      <trkpt lat="43.37123" lon="-0.61492">
        <ele>139.047852</ele>
        <time>2012-06-28T10:06:01Z</time>
      </trkpt>
      <trkpt lat="43.37136" lon="-0.61495">
        <ele>137.125244</ele>
        <time>2012-06-28T10:06:04Z</time>
      </trkpt>
      <trkpt lat="43.37157" lon="-0.61499">
        <ele>134.241211</ele>
        <time>2012-06-28T10:06:08Z</time>
      </trkpt>
      <trkpt lat="43.37171" lon="-0.61507">
        <ele>131.3573</ele>
        <time>2012-06-28T10:06:11Z</time>
      </trkpt>
      <trkpt lat="43.37193" lon="-0.61515">
        <ele>128.473389</ele>
        <time>2012-06-28T10:06:15Z</time>
      </trkpt>
      <trkpt lat="43.37199" lon="-0.61517">
        <ele>127.511963</ele>
        <time>2012-06-28T10:06:16Z</time>
      </trkpt>
      <trkpt lat="43.37211" lon="-0.61522">
        <ele>127.511963</ele>
        <time>2012-06-28T10:06:18Z</time>
      </trkpt>
      <trkpt lat="43.37246" lon="-0.61534">
        <ele>123.186157</ele>
        <time>2012-06-28T10:06:22Z</time>
      </trkpt>
      <trkpt lat="43.37265" lon="-0.61542">
        <ele>122.224731</ele>
        <time>2012-06-28T10:06:24Z</time>
      </trkpt>
      <trkpt lat="43.37282" lon="-0.61554">
        <ele>120.782837</ele>
        <time>2012-06-28T10:06:26Z</time>
      </trkpt>
      <trkpt lat="43.37323" lon="-0.61627">
        <ele>118.860107</ele>
        <time>2012-06-28T10:06:35Z</time>
      </trkpt>
      <trkpt lat="43.37354" lon="-0.61632">
        <ele>117.418213</ele>
        <time>2012-06-28T10:06:41Z</time>
      </trkpt>
      <trkpt lat="43.37416" lon="-0.61562">
        <ele>116.9375</ele>
        <time>2012-06-28T10:06:55Z</time>
      </trkpt>
      <trkpt lat="43.37431" lon="-0.61545">
        <ele>115.976196</ele>
        <time>2012-06-28T10:06:59Z</time>
      </trkpt>
      <trkpt lat="43.37443" lon="-0.61517">
        <ele>116.456787</ele>
        <time>2012-06-28T10:07:04Z</time>
      </trkpt>
      <trkpt lat="43.37483" lon="-0.61414">
        <ele>116.456787</ele>
        <time>2012-06-28T10:07:21Z</time>
      </trkpt>
      <trkpt lat="43.37523" lon="-0.61306">
        <ele>115.014893</ele>
        <time>2012-06-28T10:07:37Z</time>
      </trkpt>
      <trkpt lat="43.37535" lon="-0.61273">
        <ele>115.495605</ele>
        <time>2012-06-28T10:07:42Z</time>
      </trkpt>
      <trkpt lat="43.37547" lon="-0.61234">
        <ele>115.495605</ele>
        <time>2012-06-28T10:07:48Z</time>
      </trkpt>
      <trkpt lat="43.37569" lon="-0.6119">
        <ele>115.495605</ele>
        <time>2012-06-28T10:07:58Z</time>
      </trkpt>
      <trkpt lat="43.37556" lon="-0.61142">
        <ele>115.976196</ele>
        <time>2012-06-28T10:08:08Z</time>
      </trkpt>
      <trkpt lat="43.37525" lon="-0.61128">
        <ele>115.976196</ele>
        <time>2012-06-28T10:08:18Z</time>
      </trkpt>
      <trkpt lat="43.37515" lon="-0.61134">
        <ele>115.495605</ele>
        <time>2012-06-28T10:08:20Z</time>
      </trkpt>
      <trkpt lat="43.37506" lon="-0.61138">
        <ele>115.495605</ele>
        <time>2012-06-28T10:08:22Z</time>
      </trkpt>
      <trkpt lat="43.37481" lon="-0.61139">
        <ele>115.976196</ele>
        <time>2012-06-28T10:08:26Z</time>
      </trkpt>
      <trkpt lat="43.37404" lon="-0.61115">
        <ele>115.976196</ele>
        <time>2012-06-28T10:08:41Z</time>
      </trkpt>
      <trkpt lat="43.37362" lon="-0.61102">
        <ele>115.495605</ele>
        <time>2012-06-28T10:08:50Z</time>
      </trkpt>
      <trkpt lat="43.37342" lon="-0.61093">
        <ele>115.495605</ele>
        <time>2012-06-28T10:08:54Z</time>
      </trkpt>
      <trkpt lat="43.37314" lon="-0.61055">
        <ele>116.456787</ele>
        <time>2012-06-28T10:09:02Z</time>
      </trkpt>
      <trkpt lat="43.37294" lon="-0.6104">
        <ele>115.976196</ele>
        <time>2012-06-28T10:09:07Z</time>
      </trkpt>
      <trkpt lat="43.3728" lon="-0.61038">
        <ele>115.495605</ele>
        <time>2012-06-28T10:09:10Z</time>
      </trkpt>
      <trkpt lat="43.37266" lon="-0.61039">
        <ele>115.976196</ele>
        <time>2012-06-28T10:09:13Z</time>
      </trkpt>
      <trkpt lat="43.37246" lon="-0.61029">
        <ele>115.495605</ele>
        <time>2012-06-28T10:09:18Z</time>
      </trkpt>
      <trkpt lat="43.37223" lon="-0.61004">
        <ele>115.976196</ele>
        <time>2012-06-28T10:09:24Z</time>
      </trkpt>
      <trkpt lat="43.37211" lon="-0.60994">
        <ele>115.976196</ele>
        <time>2012-06-28T10:09:27Z</time>
      </trkpt>
      <trkpt lat="43.3716" lon="-0.6094">
        <ele>115.976196</ele>
        <time>2012-06-28T10:09:43Z</time>
      </trkpt>
      <trkpt lat="43.37129" lon="-0.60906">
        <ele>116.456787</ele>
        <time>2012-06-28T10:09:52Z</time>
      </trkpt>
      <trkpt lat="43.37095" lon="-0.60878">
        <ele>116.456787</ele>
        <time>2012-06-28T10:10:00Z</time>
      </trkpt>
      <trkpt lat="43.37066" lon="-0.60858">
        <ele>116.9375</ele>
        <time>2012-06-28T10:10:06Z</time>
      </trkpt>
      <trkpt lat="43.37016" lon="-0.60807">
        <ele>116.456787</ele>
        <time>2012-06-28T10:10:22Z</time>
      </trkpt>
      <trkpt lat="43.3699" lon="-0.60772">
        <ele>116.9375</ele>
        <time>2012-06-28T10:10:33Z</time>
      </trkpt>
      <trkpt lat="43.36962" lon="-0.60737">
        <ele>116.456787</ele>
        <time>2012-06-28T10:10:42Z</time>
      </trkpt>
      <trkpt lat="43.36939" lon="-0.60711">
        <ele>116.456787</ele>
        <time>2012-06-28T10:10:51Z</time>
      </trkpt>
      <trkpt lat="43.36939" lon="-0.60707">
        <ele>116.9375</ele>
        <time>2012-06-28T10:10:52Z</time>
      </trkpt>
      <trkpt lat="43.36963" lon="-0.60652">
        <ele>117.418213</ele>
        <time>2012-06-28T10:11:04Z</time>
      </trkpt>
      <trkpt lat="43.36977" lon="-0.60605">
        <ele>116.9375</ele>
        <time>2012-06-28T10:11:13Z</time>
      </trkpt>
      <trkpt lat="43.36971" lon="-0.60584">
        <ele>116.456787</ele>
        <time>2012-06-28T10:11:17Z</time>
      </trkpt>
      <trkpt lat="43.36959" lon="-0.60562">
        <ele>116.9375</ele>
        <time>2012-06-28T10:11:21Z</time>
      </trkpt>
      <trkpt lat="43.36932" lon="-0.60513">
        <ele>116.9375</ele>
        <time>2012-06-28T10:11:31Z</time>
      </trkpt>
      <trkpt lat="43.36918" lon="-0.60488">
        <ele>117.418213</ele>
        <time>2012-06-28T10:11:36Z</time>
      </trkpt>
      <trkpt lat="43.36899" lon="-0.6047">
        <ele>117.418213</ele>
        <time>2012-06-28T10:11:41Z</time>
      </trkpt>
      <trkpt lat="43.36873" lon="-0.60455">
        <ele>116.9375</ele>
        <time>2012-06-28T10:11:47Z</time>
      </trkpt>
      <trkpt lat="43.36861" lon="-0.6044">
        <ele>116.9375</ele>
        <time>2012-06-28T10:11:51Z</time>
      </trkpt>
      <trkpt lat="43.36846" lon="-0.60393">
        <ele>116.456787</ele>
        <time>2012-06-28T10:12:04Z</time>
      </trkpt>
      <trkpt lat="43.36822" lon="-0.60371">
        <ele>117.418213</ele>
        <time>2012-06-28T10:12:12Z</time>
      </trkpt>
      <trkpt lat="43.36759" lon="-0.60314">
        <ele>117.418213</ele>
        <time>2012-06-28T10:12:27Z</time>
      </trkpt>
      <trkpt lat="43.36749" lon="-0.60298">
        <ele>117.418213</ele>
        <time>2012-06-28T10:12:30Z</time>
      </trkpt>
      <trkpt lat="43.36699" lon="-0.60254">
        <ele>118.860107</ele>
        <time>2012-06-28T10:12:42Z</time>
      </trkpt>
      <trkpt lat="43.36674" lon="-0.60243">
        <ele>118.860107</ele>
        <time>2012-06-28T10:12:51Z</time>
      </trkpt>
      <trkpt lat="43.36672" lon="-0.60249">
        <ele>118.860107</ele>
        <time>2012-06-28T10:12:52Z</time>
      </trkpt>
      <trkpt lat="43.36658" lon="-0.60299">
        <ele>118.860107</ele>
        <time>2012-06-28T10:13:00Z</time>
      </trkpt>
      <trkpt lat="43.36639" lon="-0.60358">
        <ele>119.821411</ele>
        <time>2012-06-28T10:13:09Z</time>
      </trkpt>
      <trkpt lat="43.36623" lon="-0.60401">
        <ele>119.34082</ele>
        <time>2012-06-28T10:13:16Z</time>
      </trkpt>
      <trkpt lat="43.36588" lon="-0.60408">
        <ele>118.379395</ele>
        <time>2012-06-28T10:13:24Z</time>
      </trkpt>
      <trkpt lat="43.36563" lon="-0.6038">
        <ele>118.860107</ele>
        <time>2012-06-28T10:13:30Z</time>
      </trkpt>
      <trkpt lat="43.36501" lon="-0.60319">
        <ele>119.34082</ele>
        <time>2012-06-28T10:13:45Z</time>
      </trkpt>
      <trkpt lat="43.36486" lon="-0.60301">
        <ele>119.821411</ele>
        <time>2012-06-28T10:13:49Z</time>
      </trkpt>
      <trkpt lat="43.36475" lon="-0.60289">
        <ele>119.34082</ele>
        <time>2012-06-28T10:13:52Z</time>
      </trkpt>
      <trkpt lat="43.36461" lon="-0.60273">
        <ele>119.34082</ele>
        <time>2012-06-28T10:13:56Z</time>
      </trkpt>
      <trkpt lat="43.36445" lon="-0.60257">
        <ele>119.34082</ele>
        <time>2012-06-28T10:14:00Z</time>
      </trkpt>
      <trkpt lat="43.36399" lon="-0.60195">
        <ele>120.302124</ele>
        <time>2012-06-28T10:14:12Z</time>
      </trkpt>
      <trkpt lat="43.36363" lon="-0.60128">
        <ele>120.782837</ele>
        <time>2012-06-28T10:14:23Z</time>
      </trkpt>
      <trkpt lat="43.36329" lon="-0.60112">
        <ele>119.821411</ele>
        <time>2012-06-28T10:14:30Z</time>
      </trkpt>
      <trkpt lat="43.36303" lon="-0.60111">
        <ele>119.34082</ele>
        <time>2012-06-28T10:14:35Z</time>
      </trkpt>
      <trkpt lat="43.36255" lon="-0.6009">
        <ele>120.302124</ele>
        <time>2012-06-28T10:14:45Z</time>
      </trkpt>
      <trkpt lat="43.36231" lon="-0.60085">
        <ele>120.782837</ele>
        <time>2012-06-28T10:14:50Z</time>
      </trkpt>
      <trkpt lat="43.36211" lon="-0.60085">
        <ele>120.782837</ele>
        <time>2012-06-28T10:14:54Z</time>
      </trkpt>
      <trkpt lat="43.36192" lon="-0.60074">
        <ele>120.302124</ele>
        <time>2012-06-28T10:14:58Z</time>
      </trkpt>
      <trkpt lat="43.36178" lon="-0.60062">
        <ele>121.26355</ele>
        <time>2012-06-28T10:15:01Z</time>
      </trkpt>
      <trkpt lat="43.36113" lon="-0.59997">
        <ele>120.782837</ele>
        <time>2012-06-28T10:15:16Z</time>
      </trkpt>
      <trkpt lat="43.36034" lon="-0.59888">
        <ele>120.782837</ele>
        <time>2012-06-28T10:15:36Z</time>
      </trkpt>
      <trkpt lat="43.35945" lon="-0.59768">
        <ele>121.26355</ele>
        <time>2012-06-28T10:15:58Z</time>
      </trkpt>
      <trkpt lat="43.35943" lon="-0.5972">
        <ele>121.26355</ele>
        <time>2012-06-28T10:16:05Z</time>
      </trkpt>
      <trkpt lat="43.3596" lon="-0.5968">
        <ele>122.705444</ele>
        <time>2012-06-28T10:16:11Z</time>
      </trkpt>
      <trkpt lat="43.35989" lon="-0.59642">
        <ele>122.705444</ele>
        <time>2012-06-28T10:16:18Z</time>
      </trkpt>
      <trkpt lat="43.36002" lon="-0.59618">
        <ele>122.224731</ele>
        <time>2012-06-28T10:16:22Z</time>
      </trkpt>
      <trkpt lat="43.36006" lon="-0.59603">
        <ele>121.744141</ele>
        <time>2012-06-28T10:16:24Z</time>
      </trkpt>
      <trkpt lat="43.3601" lon="-0.59581">
        <ele>123.186157</ele>
        <time>2012-06-28T10:16:27Z</time>
      </trkpt>
      <trkpt lat="43.36005" lon="-0.59517">
        <ele>123.186157</ele>
        <time>2012-06-28T10:16:38Z</time>
      </trkpt>
      <trkpt lat="43.35979" lon="-0.59511">
        <ele>123.186157</ele>
        <time>2012-06-28T10:16:44Z</time>
      </trkpt>
      <trkpt lat="43.35972" lon="-0.59505">
        <ele>122.705444</ele>
        <time>2012-06-28T10:16:46Z</time>
      </trkpt>
      <trkpt lat="43.35939" lon="-0.59467">
        <ele>122.705444</ele>
        <time>2012-06-28T10:16:56Z</time>
      </trkpt>
      <trkpt lat="43.35898" lon="-0.59434">
        <ele>123.186157</ele>
        <time>2012-06-28T10:17:06Z</time>
      </trkpt>
      <trkpt lat="43.35894" lon="-0.59431">
        <ele>122.705444</ele>
        <time>2012-06-28T10:17:07Z</time>
      </trkpt>
      <trkpt lat="43.35876" lon="-0.59389">
        <ele>123.186157</ele>
        <time>2012-06-28T10:17:14Z</time>
      </trkpt>
      <trkpt lat="43.3587" lon="-0.59375">
        <ele>122.224731</ele>
        <time>2012-06-28T10:17:17Z</time>
      </trkpt>
      <trkpt lat="43.35854" lon="-0.59359">
        <ele>123.186157</ele>
        <time>2012-06-28T10:17:21Z</time>
      </trkpt>
      <trkpt lat="43.35846" lon="-0.59352">
        <ele>122.705444</ele>
        <time>2012-06-28T10:17:23Z</time>
      </trkpt>
      <trkpt lat="43.35813" lon="-0.59329">
        <ele>124.147339</ele>
        <time>2012-06-28T10:17:31Z</time>
      </trkpt>
      <trkpt lat="43.35808" lon="-0.59307">
        <ele>123.666748</ele>
        <time>2012-06-28T10:17:35Z</time>
      </trkpt>
      <trkpt lat="43.35809" lon="-0.59266">
        <ele>123.186157</ele>
        <time>2012-06-28T10:17:42Z</time>
      </trkpt>
      <trkpt lat="43.35803" lon="-0.59206">
        <ele>123.186157</ele>
        <time>2012-06-28T10:17:53Z</time>
      </trkpt>
      <trkpt lat="43.35804" lon="-0.59188">
        <ele>123.186157</ele>
        <time>2012-06-28T10:17:56Z</time>
      </trkpt>
      <trkpt lat="43.35807" lon="-0.59158">
        <ele>123.186157</ele>
        <time>2012-06-28T10:18:01Z</time>
      </trkpt>
      <trkpt lat="43.35785" lon="-0.59117">
        <ele>122.705444</ele>
        <time>2012-06-28T10:18:11Z</time>
      </trkpt>
      <trkpt lat="43.35777" lon="-0.59111">
        <ele>123.186157</ele>
        <time>2012-06-28T10:18:13Z</time>
      </trkpt>
      <trkpt lat="43.35765" lon="-0.59092">
        <ele>122.705444</ele>
        <time>2012-06-28T10:18:17Z</time>
      </trkpt>
      <trkpt lat="43.35758" lon="-0.59057">
        <ele>123.666748</ele>
        <time>2012-06-28T10:18:23Z</time>
      </trkpt>
      <trkpt lat="43.35753" lon="-0.59032">
        <ele>123.186157</ele>
        <time>2012-06-28T10:18:27Z</time>
      </trkpt>
      <trkpt lat="43.35753" lon="-0.59013">
        <ele>123.666748</ele>
        <time>2012-06-28T10:18:30Z</time>
      </trkpt>
      <trkpt lat="43.35748" lon="-0.58961">
        <ele>123.186157</ele>
        <time>2012-06-28T10:18:38Z</time>
      </trkpt>
      <trkpt lat="43.35719" lon="-0.58925">
        <ele>122.705444</ele>
        <time>2012-06-28T10:18:47Z</time>
      </trkpt>
      <trkpt lat="43.3569" lon="-0.58911">
        <ele>122.705444</ele>
        <time>2012-06-28T10:18:53Z</time>
      </trkpt>
      <trkpt lat="43.35678" lon="-0.58902">
        <ele>123.666748</ele>
        <time>2012-06-28T10:18:56Z</time>
      </trkpt>
      <trkpt lat="43.3566" lon="-0.58886">
        <ele>123.186157</ele>
        <time>2012-06-28T10:19:01Z</time>
      </trkpt>
      <trkpt lat="43.35617" lon="-0.58865">
        <ele>122.705444</ele>
        <time>2012-06-28T10:19:13Z</time>
      </trkpt>
      <trkpt lat="43.35603" lon="-0.58822">
        <ele>123.666748</ele>
        <time>2012-06-28T10:19:22Z</time>
      </trkpt>
      <trkpt lat="43.35587" lon="-0.58785">
        <ele>123.186157</ele>
        <time>2012-06-28T10:19:30Z</time>
      </trkpt>
      <trkpt lat="43.35581" lon="-0.58736">
        <ele>123.186157</ele>
        <time>2012-06-28T10:19:39Z</time>
      </trkpt>
      <trkpt lat="43.35578" lon="-0.58706">
        <ele>124.147339</ele>
        <time>2012-06-28T10:19:44Z</time>
      </trkpt>
      <trkpt lat="43.35564" lon="-0.58643">
        <ele>123.666748</ele>
        <time>2012-06-28T10:19:56Z</time>
      </trkpt>
      <trkpt lat="43.35557" lon="-0.58607">
        <ele>124.628052</ele>
        <time>2012-06-28T10:20:02Z</time>
      </trkpt>
      <trkpt lat="43.35552" lon="-0.58582">
        <ele>124.147339</ele>
        <time>2012-06-28T10:20:06Z</time>
      </trkpt>
      <trkpt lat="43.35554" lon="-0.58546">
        <ele>124.147339</ele>
        <time>2012-06-28T10:20:12Z</time>
      </trkpt>
      <trkpt lat="43.35576" lon="-0.58502">
        <ele>124.147339</ele>
        <time>2012-06-28T10:20:19Z</time>
      </trkpt>
      <trkpt lat="43.35592" lon="-0.58487">
        <ele>123.666748</ele>
        <time>2012-06-28T10:20:23Z</time>
      </trkpt>
      <trkpt lat="43.35599" lon="-0.58475">
        <ele>124.147339</ele>
        <time>2012-06-28T10:20:25Z</time>
      </trkpt>
      <trkpt lat="43.35607" lon="-0.58448">
        <ele>124.147339</ele>
        <time>2012-06-28T10:20:29Z</time>
      </trkpt>
      <trkpt lat="43.35609" lon="-0.58421">
        <ele>124.147339</ele>
        <time>2012-06-28T10:20:33Z</time>
      </trkpt>
      <trkpt lat="43.35612" lon="-0.58343">
        <ele>123.666748</ele>
        <time>2012-06-28T10:20:44Z</time>
      </trkpt>
      <trkpt lat="43.35615" lon="-0.58323">
        <ele>124.147339</ele>
        <time>2012-06-28T10:20:47Z</time>
      </trkpt>
      <trkpt lat="43.35655" lon="-0.58298">
        <ele>124.147339</ele>
        <time>2012-06-28T10:20:55Z</time>
      </trkpt>
      <trkpt lat="43.35658" lon="-0.58287">
        <ele>123.666748</ele>
        <time>2012-06-28T10:20:58Z</time>
      </trkpt>
      <trkpt lat="43.35658" lon="-0.58277">
        <ele>123.186157</ele>
        <time>2012-06-28T10:21:05Z</time>
      </trkpt>
      <trkpt lat="43.35654" lon="-0.58262">
        <ele>123.666748</ele>
        <time>2012-06-28T10:21:09Z</time>
      </trkpt>
      <trkpt lat="43.35648" lon="-0.58192">
        <ele>123.186157</ele>
        <time>2012-06-28T10:21:20Z</time>
      </trkpt>
      <trkpt lat="43.35651" lon="-0.58165">
        <ele>124.147339</ele>
        <time>2012-06-28T10:21:24Z</time>
      </trkpt>
      <trkpt lat="43.35695" lon="-0.58003">
        <ele>123.666748</ele>
        <time>2012-06-28T10:21:46Z</time>
      </trkpt>
      <trkpt lat="43.35758" lon="-0.57782">
        <ele>124.628052</ele>
        <time>2012-06-28T10:22:14Z</time>
      </trkpt>
      <trkpt lat="43.35806" lon="-0.57611">
        <ele>124.628052</ele>
        <time>2012-06-28T10:22:38Z</time>
      </trkpt>
      <trkpt lat="43.35806" lon="-0.5759">
        <ele>124.147339</ele>
        <time>2012-06-28T10:22:41Z</time>
      </trkpt>
      <trkpt lat="43.3578" lon="-0.57477">
        <ele>123.186157</ele>
        <time>2012-06-28T10:22:56Z</time>
      </trkpt>
      <trkpt lat="43.35758" lon="-0.57426">
        <ele>123.186157</ele>
        <time>2012-06-28T10:23:04Z</time>
      </trkpt>
      <trkpt lat="43.35726" lon="-0.57286">
        <ele>123.666748</ele>
        <time>2012-06-28T10:23:24Z</time>
      </trkpt>
      <trkpt lat="43.3568" lon="-0.57156">
        <ele>125.108765</ele>
        <time>2012-06-28T10:23:44Z</time>
      </trkpt>
      <trkpt lat="43.35665" lon="-0.57029">
        <ele>125.589355</ele>
        <time>2012-06-28T10:24:02Z</time>
      </trkpt>
      <trkpt lat="43.35681" lon="-0.56916">
        <ele>125.589355</ele>
        <time>2012-06-28T10:24:18Z</time>
      </trkpt>
      <trkpt lat="43.35686" lon="-0.56887">
        <ele>125.108765</ele>
        <time>2012-06-28T10:24:22Z</time>
      </trkpt>
      <trkpt lat="43.35713" lon="-0.56758">
        <ele>125.589355</ele>
        <time>2012-06-28T10:24:40Z</time>
      </trkpt>
      <trkpt lat="43.357" lon="-0.56745">
        <ele>125.108765</ele>
        <time>2012-06-28T10:24:46Z</time>
      </trkpt>
      <trkpt lat="43.35695" lon="-0.56749">
        <ele>125.108765</ele>
        <time>2012-06-28T10:24:47Z</time>
      </trkpt>
      <trkpt lat="43.35591" lon="-0.56817">
        <ele>125.108765</ele>
        <time>2012-06-28T10:25:09Z</time>
      </trkpt>
      <trkpt lat="43.35545" lon="-0.56847">
        <ele>125.589355</ele>
        <time>2012-06-28T10:25:19Z</time>
      </trkpt>
      <trkpt lat="43.35518" lon="-0.56854">
        <ele>124.628052</ele>
        <time>2012-06-28T10:25:25Z</time>
      </trkpt>
      <trkpt lat="43.35463" lon="-0.56892">
        <ele>125.108765</ele>
        <time>2012-06-28T10:25:37Z</time>
      </trkpt>
      <trkpt lat="43.35441" lon="-0.56907">
        <ele>125.108765</ele>
        <time>2012-06-28T10:25:42Z</time>
      </trkpt>
      <trkpt lat="43.35433" lon="-0.56912">
        <ele>124.628052</ele>
        <time>2012-06-28T10:25:44Z</time>
      </trkpt>
      <trkpt lat="43.35335" lon="-0.56967">
        <ele>124.628052</ele>
        <time>2012-06-28T10:26:05Z</time>
      </trkpt>
      <trkpt lat="43.35246" lon="-0.5702">
        <ele>125.589355</ele>
        <time>2012-06-28T10:26:24Z</time>
      </trkpt>
      <trkpt lat="43.35216" lon="-0.57037">
        <ele>126.069946</ele>
        <time>2012-06-28T10:26:32Z</time>
      </trkpt>
      <trkpt lat="43.35175" lon="-0.57048">
        <ele>125.108765</ele>
        <time>2012-06-28T10:26:41Z</time>
      </trkpt>
      <trkpt lat="43.35167" lon="-0.57048">
        <ele>124.628052</ele>
        <time>2012-06-28T10:26:43Z</time>
      </trkpt>
      <trkpt lat="43.35153" lon="-0.57042">
        <ele>124.628052</ele>
        <time>2012-06-28T10:26:46Z</time>
      </trkpt>
      <trkpt lat="43.35133" lon="-0.57008">
        <ele>125.108765</ele>
        <time>2012-06-28T10:26:53Z</time>
      </trkpt>
      <trkpt lat="43.35122" lon="-0.56986">
        <ele>125.589355</ele>
        <time>2012-06-28T10:26:57Z</time>
      </trkpt>
      <trkpt lat="43.35099" lon="-0.56939">
        <ele>125.108765</ele>
        <time>2012-06-28T10:27:06Z</time>
      </trkpt>
      <trkpt lat="43.35086" lon="-0.56924">
        <ele>125.108765</ele>
        <time>2012-06-28T10:27:10Z</time>
      </trkpt>
      <trkpt lat="43.35037" lon="-0.56894">
        <ele>125.589355</ele>
        <time>2012-06-28T10:27:25Z</time>
      </trkpt>
      <trkpt lat="43.34998" lon="-0.56876">
        <ele>126.550659</ele>
        <time>2012-06-28T10:27:37Z</time>
      </trkpt>
      <trkpt lat="43.34973" lon="-0.56876">
        <ele>127.992554</ele>
        <time>2012-06-28T10:27:48Z</time>
      </trkpt>
      <trkpt lat="43.34953" lon="-0.56889">
        <ele>130.876709</ele>
        <time>2012-06-28T10:28:01Z</time>
      </trkpt>
      <trkpt lat="43.3495" lon="-0.56894">
        <ele>131.3573</ele>
        <time>2012-06-28T10:28:04Z</time>
      </trkpt>
      <trkpt lat="43.34953" lon="-0.56901">
        <ele>132.799316</ele>
        <time>2012-06-28T10:28:09Z</time>
      </trkpt>
      <trkpt lat="43.34967" lon="-0.56902">
        <ele>133.760498</ele>
        <time>2012-06-28T10:28:20Z</time>
      </trkpt>
      <trkpt lat="43.34977" lon="-0.5691">
        <ele>134.721924</ele>
        <time>2012-06-28T10:28:26Z</time>
      </trkpt>
      <trkpt lat="43.34985" lon="-0.56924">
        <ele>136.644653</ele>
        <time>2012-06-28T10:28:33Z</time>
      </trkpt>
      <trkpt lat="43.34991" lon="-0.56948">
        <ele>138.567261</ele>
        <time>2012-06-28T10:28:46Z</time>
      </trkpt>
      <trkpt lat="43.3499" lon="-0.56951">
        <ele>137.605835</ele>
        <time>2012-06-28T10:28:50Z</time>
      </trkpt>
      <trkpt lat="43.34987" lon="-0.56956">
        <ele>139.047852</ele>
        <time>2012-06-28T10:29:11Z</time>
      </trkpt>
      <trkpt lat="43.3499" lon="-0.56967">
        <ele>140.009155</ele>
        <time>2012-06-28T10:29:24Z</time>
      </trkpt>
      <trkpt lat="43.34991" lon="-0.56975">
        <ele>141.931763</ele>
        <time>2012-06-28T10:29:28Z</time>
      </trkpt>
      <trkpt lat="43.3499" lon="-0.5699">
        <ele>142.412476</ele>
        <time>2012-06-28T10:29:35Z</time>
      </trkpt>
      <trkpt lat="43.34972" lon="-0.57003">
        <ele>144.815796</ele>
        <time>2012-06-28T10:29:49Z</time>
      </trkpt>
      <trkpt lat="43.34968" lon="-0.57004">
        <ele>146.738403</ele>
        <time>2012-06-28T10:29:52Z</time>
      </trkpt>
      <trkpt lat="43.34958" lon="-0.57017">
        <ele>149.622314</ele>
        <time>2012-06-28T10:30:02Z</time>
      </trkpt>
      <trkpt lat="43.34946" lon="-0.57045">
        <ele>152.506348</ele>
        <time>2012-06-28T10:30:15Z</time>
      </trkpt>
      <trkpt lat="43.3494" lon="-0.57061">
        <ele>153.948364</ele>
        <time>2012-06-28T10:30:22Z</time>
      </trkpt>
      <trkpt lat="43.34932" lon="-0.5708">
        <ele>156.832153</ele>
        <time>2012-06-28T10:30:34Z</time>
      </trkpt>
      <trkpt lat="43.34929" lon="-0.571">
        <ele>159.716187</ele>
        <time>2012-06-28T10:30:46Z</time>
      </trkpt>
      <trkpt lat="43.34924" lon="-0.57121">
        <ele>163.080811</ele>
        <time>2012-06-28T10:30:58Z</time>
      </trkpt>
      <trkpt lat="43.34916" lon="-0.57136">
        <ele>165.003418</ele>
        <time>2012-06-28T10:31:10Z</time>
      </trkpt>
      <trkpt lat="43.34916" lon="-0.57141">
        <ele>166.445312</ele>
        <time>2012-06-28T10:31:14Z</time>
      </trkpt>
      <trkpt lat="43.34914" lon="-0.57155">
        <ele>168.848755</ele>
        <time>2012-06-28T10:31:26Z</time>
      </trkpt>
      <trkpt lat="43.3491" lon="-0.57169">
        <ele>169.810059</ele>
        <time>2012-06-28T10:31:31Z</time>
      </trkpt>
      <trkpt lat="43.34902" lon="-0.57192">
        <ele>173.174683</ele>
        <time>2012-06-28T10:31:46Z</time>
      </trkpt>
      <trkpt lat="43.34898" lon="-0.57216">
        <ele>173.655273</ele>
        <time>2012-06-28T10:31:58Z</time>
      </trkpt>
      <trkpt lat="43.34894" lon="-0.57232">
        <ele>175.09729</ele>
        <time>2012-06-28T10:32:04Z</time>
      </trkpt>
      <trkpt lat="43.34893" lon="-0.57241">
        <ele>176.058594</ele>
        <time>2012-06-28T10:32:08Z</time>
      </trkpt>
      <trkpt lat="43.34886" lon="-0.57264">
        <ele>177.50061</ele>
        <time>2012-06-28T10:32:17Z</time>
      </trkpt>
      <trkpt lat="43.34872" lon="-0.57277">
        <ele>177.50061</ele>
        <time>2012-06-28T10:32:27Z</time>
      </trkpt>
      <trkpt lat="43.34853" lon="-0.57287">
        <ele>179.423218</ele>
        <time>2012-06-28T10:32:39Z</time>
      </trkpt>
      <trkpt lat="43.34839" lon="-0.57294">
        <ele>182.307129</ele>
        <time>2012-06-28T10:32:50Z</time>
      </trkpt>
      <trkpt lat="43.34822" lon="-0.57292">
        <ele>185.671753</ele>
        <time>2012-06-28T10:33:00Z</time>
      </trkpt>
      <trkpt lat="43.34818" lon="-0.57297">
        <ele>186.633179</ele>
        <time>2012-06-28T10:33:05Z</time>
      </trkpt>
      <trkpt lat="43.34813" lon="-0.57304">
        <ele>187.11377</ele>
        <time>2012-06-28T10:33:11Z</time>
      </trkpt>
      <trkpt lat="43.34811" lon="-0.57306">
        <ele>188.555786</ele>
        <time>2012-06-28T10:33:14Z</time>
      </trkpt>
      <trkpt lat="43.34798" lon="-0.57312">
        <ele>189.516968</ele>
        <time>2012-06-28T10:33:22Z</time>
      </trkpt>
      <trkpt lat="43.34787" lon="-0.57316">
        <ele>192.401123</ele>
        <time>2012-06-28T10:33:33Z</time>
      </trkpt>
      <trkpt lat="43.34775" lon="-0.57322">
        <ele>195.284912</ele>
        <time>2012-06-28T10:33:44Z</time>
      </trkpt>
      <trkpt lat="43.34762" lon="-0.57332">
        <ele>198.168945</ele>
        <time>2012-06-28T10:33:56Z</time>
      </trkpt>
      <trkpt lat="43.34737" lon="-0.57319">
        <ele>199.61084</ele>
        <time>2012-06-28T10:34:11Z</time>
      </trkpt>
      <trkpt lat="43.34712" lon="-0.573">
        <ele>200.572266</ele>
        <time>2012-06-28T10:34:25Z</time>
      </trkpt>
      <trkpt lat="43.3469" lon="-0.57282">
        <ele>200.091675</ele>
        <time>2012-06-28T10:34:36Z</time>
      </trkpt>
      <trkpt lat="43.34674" lon="-0.57264">
        <ele>202.494873</ele>
        <time>2012-06-28T10:34:47Z</time>
      </trkpt>
      <trkpt lat="43.34655" lon="-0.57242">
        <ele>202.975464</ele>
        <time>2012-06-28T10:35:02Z</time>
      </trkpt>
      <trkpt lat="43.34635" lon="-0.57215">
        <ele>204.41748</ele>
        <time>2012-06-28T10:35:17Z</time>
      </trkpt>
      <trkpt lat="43.34599" lon="-0.57184">
        <ele>206.820679</ele>
        <time>2012-06-28T10:35:39Z</time>
      </trkpt>
      <trkpt lat="43.34571" lon="-0.57163">
        <ele>210.185425</ele>
        <time>2012-06-28T10:35:57Z</time>
      </trkpt>
      <trkpt lat="43.34551" lon="-0.57157">
        <ele>213.550049</ele>
        <time>2012-06-28T10:36:12Z</time>
      </trkpt>
      <trkpt lat="43.34546" lon="-0.57157">
        <ele>214.51123</ele>
        <time>2012-06-28T10:36:18Z</time>
      </trkpt>
      <trkpt lat="43.34534" lon="-0.57151">
        <ele>216.43396</ele>
        <time>2012-06-28T10:36:27Z</time>
      </trkpt>
      <trkpt lat="43.34519" lon="-0.57143">
        <ele>219.798584</ele>
        <time>2012-06-28T10:36:40Z</time>
      </trkpt>
      <trkpt lat="43.34502" lon="-0.57133">
        <ele>222.682495</ele>
        <time>2012-06-28T10:36:55Z</time>
      </trkpt>
      <trkpt lat="43.34479" lon="-0.57121">
        <ele>225.566528</ele>
        <time>2012-06-28T10:37:13Z</time>
      </trkpt>
      <trkpt lat="43.34462" lon="-0.57115">
        <ele>228.450439</ele>
        <time>2012-06-28T10:37:26Z</time>
      </trkpt>
      <trkpt lat="43.34429" lon="-0.57111">
        <ele>230.85376</ele>
        <time>2012-06-28T10:37:48Z</time>
      </trkpt>
      <trkpt lat="43.34409" lon="-0.57109">
        <ele>233.737671</ele>
        <time>2012-06-28T10:38:00Z</time>
      </trkpt>
      <trkpt lat="43.34381" lon="-0.57094">
        <ele>235.660278</ele>
        <time>2012-06-28T10:38:18Z</time>
      </trkpt>
      <trkpt lat="43.34359" lon="-0.57063">
        <ele>236.140991</ele>
        <time>2012-06-28T10:38:33Z</time>
      </trkpt>
      <trkpt lat="43.34335" lon="-0.57018">
        <ele>237.102295</ele>
        <time>2012-06-28T10:38:47Z</time>
      </trkpt>
      <trkpt lat="43.34315" lon="-0.56964">
        <ele>237.582886</ele>
        <time>2012-06-28T10:38:59Z</time>
      </trkpt>
      <trkpt lat="43.34298" lon="-0.5692">
        <ele>238.063599</ele>
        <time>2012-06-28T10:39:11Z</time>
      </trkpt>
      <trkpt lat="43.34287" lon="-0.569">
        <ele>237.582886</ele>
        <time>2012-06-28T10:39:16Z</time>
      </trkpt>
      <trkpt lat="43.34276" lon="-0.56884">
        <ele>238.063599</ele>
        <time>2012-06-28T10:39:20Z</time>
      </trkpt>
      <trkpt lat="43.3427" lon="-0.56876">
        <ele>237.582886</ele>
        <time>2012-06-28T10:39:22Z</time>
      </trkpt>
      <trkpt lat="43.34261" lon="-0.56858">
        <ele>237.582886</ele>
        <time>2012-06-28T10:39:26Z</time>
      </trkpt>
      <trkpt lat="43.3423" lon="-0.56817">
        <ele>238.063599</ele>
        <time>2012-06-28T10:39:37Z</time>
      </trkpt>
      <trkpt lat="43.34166" lon="-0.56779">
        <ele>238.063599</ele>
        <time>2012-06-28T10:39:55Z</time>
      </trkpt>
      <trkpt lat="43.34123" lon="-0.56757">
        <ele>241.428223</ele>
        <time>2012-06-28T10:40:11Z</time>
      </trkpt>
      <trkpt lat="43.34101" lon="-0.5675">
        <ele>243.831543</ele>
        <time>2012-06-28T10:40:19Z</time>
      </trkpt>
      <trkpt lat="43.34069" lon="-0.56746">
        <ele>245.273438</ele>
        <time>2012-06-28T10:40:33Z</time>
      </trkpt>
      <trkpt lat="43.34033" lon="-0.56766">
        <ele>245.75415</ele>
        <time>2012-06-28T10:40:45Z</time>
      </trkpt>
      <trkpt lat="43.3399" lon="-0.56778">
        <ele>245.75415</ele>
        <time>2012-06-28T10:40:57Z</time>
      </trkpt>
      <trkpt lat="43.33966" lon="-0.56779">
        <ele>245.273438</ele>
        <time>2012-06-28T10:41:03Z</time>
      </trkpt>
      <trkpt lat="43.33948" lon="-0.56782">
        <ele>244.792847</ele>
        <time>2012-06-28T10:41:07Z</time>
      </trkpt>
      <trkpt lat="43.33925" lon="-0.56786">
        <ele>244.792847</ele>
        <time>2012-06-28T10:41:12Z</time>
      </trkpt>
      <trkpt lat="43.33911" lon="-0.56783">
        <ele>244.792847</ele>
        <time>2012-06-28T10:41:15Z</time>
      </trkpt>
      <trkpt lat="43.33888" lon="-0.56765">
        <ele>242.870239</ele>
        <time>2012-06-28T10:41:20Z</time>
      </trkpt>
      <trkpt lat="43.33875" lon="-0.5673">
        <ele>239.986206</ele>
        <time>2012-06-28T10:41:24Z</time>
      </trkpt>
      <trkpt lat="43.33856" lon="-0.56644">
        <ele>237.102295</ele>
        <time>2012-06-28T10:41:32Z</time>
      </trkpt>
      <trkpt lat="43.33835" lon="-0.56541">
        <ele>237.582886</ele>
        <time>2012-06-28T10:41:43Z</time>
      </trkpt>
      <trkpt lat="43.33819" lon="-0.56466">
        <ele>238.063599</ele>
        <time>2012-06-28T10:41:55Z</time>
      </trkpt>
      <trkpt lat="43.33817" lon="-0.56444">
        <ele>238.063599</ele>
        <time>2012-06-28T10:41:58Z</time>
      </trkpt>
      <trkpt lat="43.33812" lon="-0.56429">
        <ele>237.102295</ele>
        <time>2012-06-28T10:42:00Z</time>
      </trkpt>
      <trkpt lat="43.33793" lon="-0.56393">
        <ele>233.25708</ele>
        <time>2012-06-28T10:42:04Z</time>
      </trkpt>
      <trkpt lat="43.3378" lon="-0.5637">
        <ele>231.814941</ele>
        <time>2012-06-28T10:42:06Z</time>
      </trkpt>
      <trkpt lat="43.33755" lon="-0.56314">
        <ele>225.085938</ele>
        <time>2012-06-28T10:42:11Z</time>
      </trkpt>
      <trkpt lat="43.33749" lon="-0.56305">
        <ele>224.605225</ele>
        <time>2012-06-28T10:42:12Z</time>
      </trkpt>
      <trkpt lat="43.33708" lon="-0.5626">
        <ele>219.798584</ele>
        <time>2012-06-28T10:42:17Z</time>
      </trkpt>
      <trkpt lat="43.33693" lon="-0.56247">
        <ele>215.472656</ele>
        <time>2012-06-28T10:42:19Z</time>
      </trkpt>
      <trkpt lat="43.33655" lon="-0.56223">
        <ele>213.069336</ele>
        <time>2012-06-28T10:42:26Z</time>
      </trkpt>
      <trkpt lat="43.33571" lon="-0.56095">
        <ele>210.666016</ele>
        <time>2012-06-28T10:42:46Z</time>
      </trkpt>
      <trkpt lat="43.33505" lon="-0.56033">
        <ele>209.704834</ele>
        <time>2012-06-28T10:43:00Z</time>
      </trkpt>
      <trkpt lat="43.33472" lon="-0.5603">
        <ele>213.069336</ele>
        <time>2012-06-28T10:43:11Z</time>
      </trkpt>
      <trkpt lat="43.33437" lon="-0.56025">
        <ele>216.914673</ele>
        <time>2012-06-28T10:43:26Z</time>
      </trkpt>
      <trkpt lat="43.33423" lon="-0.56018">
        <ele>219.317993</ele>
        <time>2012-06-28T10:43:34Z</time>
      </trkpt>
      <trkpt lat="43.33407" lon="-0.55998">
        <ele>222.201782</ele>
        <time>2012-06-28T10:43:48Z</time>
      </trkpt>
      <trkpt lat="43.33406" lon="-0.55997">
        <ele>222.682495</ele>
        <time>2012-06-28T10:43:49Z</time>
      </trkpt>
      <trkpt lat="43.33401" lon="-0.55989">
        <ele>224.124512</ele>
        <time>2012-06-28T10:43:54Z</time>
      </trkpt>
      <trkpt lat="43.33391" lon="-0.55972">
        <ele>227.489136</ele>
        <time>2012-06-28T10:44:04Z</time>
      </trkpt>
      <trkpt lat="43.33369" lon="-0.55951">
        <ele>229.892334</ele>
        <time>2012-06-28T10:44:20Z</time>
      </trkpt>
      <trkpt lat="43.33357" lon="-0.55948">
        <ele>231.814941</ele>
        <time>2012-06-28T10:44:27Z</time>
      </trkpt>
      <trkpt lat="43.33331" lon="-0.55945">
        <ele>233.737671</ele>
        <time>2012-06-28T10:44:41Z</time>
      </trkpt>
      <trkpt lat="43.3331" lon="-0.55941">
        <ele>236.621704</ele>
        <time>2012-06-28T10:44:53Z</time>
      </trkpt>
      <trkpt lat="43.33302" lon="-0.5594">
        <ele>238.063599</ele>
        <time>2012-06-28T10:44:58Z</time>
      </trkpt>
      <trkpt lat="43.33288" lon="-0.55935">
        <ele>239.024902</ele>
        <time>2012-06-28T10:45:05Z</time>
      </trkpt>
      <trkpt lat="43.33244" lon="-0.55922">
        <ele>238.063599</ele>
        <time>2012-06-28T10:45:20Z</time>
      </trkpt>
      <trkpt lat="43.33195" lon="-0.55898">
        <ele>239.024902</ele>
        <time>2012-06-28T10:45:32Z</time>
      </trkpt>
      <trkpt lat="43.33136" lon="-0.5586">
        <ele>241.428223</ele>
        <time>2012-06-28T10:45:51Z</time>
      </trkpt>
      <trkpt lat="43.33102" lon="-0.5584">
        <ele>244.792847</ele>
        <time>2012-06-28T10:46:06Z</time>
      </trkpt>
      <trkpt lat="43.331" lon="-0.55839">
        <ele>245.273438</ele>
        <time>2012-06-28T10:46:07Z</time>
      </trkpt>
      <trkpt lat="43.3304" lon="-0.55811">
        <ele>248.638184</ele>
        <time>2012-06-28T10:46:32Z</time>
      </trkpt>
      <trkpt lat="43.32998" lon="-0.5579">
        <ele>250.560791</ele>
        <time>2012-06-28T10:46:52Z</time>
      </trkpt>
      <trkpt lat="43.32989" lon="-0.55785">
        <ele>252.483398</ele>
        <time>2012-06-28T10:46:57Z</time>
      </trkpt>
      <trkpt lat="43.32978" lon="-0.55777">
        <ele>255.36731</ele>
        <time>2012-06-28T10:47:04Z</time>
      </trkpt>
      <trkpt lat="43.32943" lon="-0.55752">
        <ele>257.290039</ele>
        <time>2012-06-28T10:47:23Z</time>
      </trkpt>
      <trkpt lat="43.32917" lon="-0.55728">
        <ele>257.770752</ele>
        <time>2012-06-28T10:47:35Z</time>
      </trkpt>
      <trkpt lat="43.32912" lon="-0.55751">
        <ele>257.770752</ele>
        <time>2012-06-28T10:47:42Z</time>
      </trkpt>
      <trkpt lat="43.32923" lon="-0.55848">
        <ele>253.444702</ele>
        <time>2012-06-28T10:47:53Z</time>
      </trkpt>
      <trkpt lat="43.32923" lon="-0.55859">
        <ele>253.444702</ele>
        <time>2012-06-28T10:47:54Z</time>
      </trkpt>
      <trkpt lat="43.32927" lon="-0.55907">
        <ele>249.599487</ele>
        <time>2012-06-28T10:47:58Z</time>
      </trkpt>
      <trkpt lat="43.32928" lon="-0.55921">
        <ele>249.599487</ele>
        <time>2012-06-28T10:47:59Z</time>
      </trkpt>
      <trkpt lat="43.32936" lon="-0.55997">
        <ele>246.234863</ele>
        <time>2012-06-28T10:48:04Z</time>
      </trkpt>
      <trkpt lat="43.32941" lon="-0.56029">
        <ele>243.831543</ele>
        <time>2012-06-28T10:48:06Z</time>
      </trkpt>
      <trkpt lat="43.32972" lon="-0.5612">
        <ele>241.908936</ele>
        <time>2012-06-28T10:48:13Z</time>
      </trkpt>
      <trkpt lat="43.32985" lon="-0.56181">
        <ele>239.505493</ele>
        <time>2012-06-28T10:48:18Z</time>
      </trkpt>
      <trkpt lat="43.32991" lon="-0.56215">
        <ele>241.428223</ele>
        <time>2012-06-28T10:48:22Z</time>
      </trkpt>
      <trkpt lat="43.3299" lon="-0.56222">
        <ele>241.908936</ele>
        <time>2012-06-28T10:48:23Z</time>
      </trkpt>
      <trkpt lat="43.32989" lon="-0.56235">
        <ele>242.389648</ele>
        <time>2012-06-28T10:48:25Z</time>
      </trkpt>
      <trkpt lat="43.32991" lon="-0.56258">
        <ele>244.312256</ele>
        <time>2012-06-28T10:48:30Z</time>
      </trkpt>
      <trkpt lat="43.33" lon="-0.56311">
        <ele>243.35083</ele>
        <time>2012-06-28T10:48:41Z</time>
      </trkpt>
      <trkpt lat="43.32977" lon="-0.5638">
        <ele>240.947632</ele>
        <time>2012-06-28T10:48:48Z</time>
      </trkpt>
      <trkpt lat="43.32948" lon="-0.56416">
        <ele>239.505493</ele>
        <time>2012-06-28T10:48:53Z</time>
      </trkpt>
      <trkpt lat="43.32903" lon="-0.56469">
        <ele>238.063599</ele>
        <time>2012-06-28T10:49:02Z</time>
      </trkpt>
      <trkpt lat="43.32889" lon="-0.56504">
        <ele>237.582886</ele>
        <time>2012-06-28T10:49:07Z</time>
      </trkpt>
      <trkpt lat="43.32887" lon="-0.56525">
        <ele>237.102295</ele>
        <time>2012-06-28T10:49:10Z</time>
      </trkpt>
      <trkpt lat="43.32878" lon="-0.56548">
        <ele>235.179688</ele>
        <time>2012-06-28T10:49:13Z</time>
      </trkpt>
      <trkpt lat="43.32842" lon="-0.56561">
        <ele>229.892334</ele>
        <time>2012-06-28T10:49:20Z</time>
      </trkpt>
      <trkpt lat="43.32828" lon="-0.56545">
        <ele>231.334351</ele>
        <time>2012-06-28T10:49:25Z</time>
      </trkpt>
      <trkpt lat="43.32817" lon="-0.56533">
        <ele>236.140991</ele>
        <time>2012-06-28T10:49:34Z</time>
      </trkpt>
      <trkpt lat="43.32805" lon="-0.56525">
        <ele>239.024902</ele>
        <time>2012-06-28T10:49:44Z</time>
      </trkpt>
      <trkpt lat="43.32791" lon="-0.56509">
        <ele>242.389648</ele>
        <time>2012-06-28T10:49:54Z</time>
      </trkpt>
      <trkpt lat="43.32784" lon="-0.56494">
        <ele>244.792847</ele>
        <time>2012-06-28T10:50:01Z</time>
      </trkpt>
      <trkpt lat="43.32784" lon="-0.56464">
        <ele>247.676758</ele>
        <time>2012-06-28T10:50:17Z</time>
      </trkpt>
      <trkpt lat="43.32791" lon="-0.56437">
        <ele>248.638184</ele>
        <time>2012-06-28T10:50:31Z</time>
      </trkpt>
      <trkpt lat="43.32802" lon="-0.56395">
        <ele>252.002808</ele>
        <time>2012-06-28T10:50:49Z</time>
      </trkpt>
      <trkpt lat="43.32822" lon="-0.56364">
        <ele>254.406006</ele>
        <time>2012-06-28T10:51:04Z</time>
      </trkpt>
      <trkpt lat="43.32843" lon="-0.56316">
        <ele>256.809326</ele>
        <time>2012-06-28T10:51:20Z</time>
      </trkpt>
      <trkpt lat="43.32854" lon="-0.56265">
        <ele>258.251343</ele>
        <time>2012-06-28T10:51:34Z</time>
      </trkpt>
      <trkpt lat="43.32851" lon="-0.56225">
        <ele>257.290039</ele>
        <time>2012-06-28T10:51:42Z</time>
      </trkpt>
      <trkpt lat="43.32847" lon="-0.56202">
        <ele>256.809326</ele>
        <time>2012-06-28T10:51:46Z</time>
      </trkpt>
      <trkpt lat="43.3283" lon="-0.56152">
        <ele>252.963989</ele>
        <time>2012-06-28T10:51:52Z</time>
      </trkpt>
      <trkpt lat="43.32816" lon="-0.56119">
        <ele>249.599487</ele>
        <time>2012-06-28T10:51:55Z</time>
      </trkpt>
      <trkpt lat="43.32811" lon="-0.56108">
        <ele>248.157593</ele>
        <time>2012-06-28T10:51:56Z</time>
      </trkpt>
      <trkpt lat="43.32791" lon="-0.56073">
        <ele>246.715454</ele>
        <time>2012-06-28T10:51:59Z</time>
      </trkpt>
      <trkpt lat="43.32777" lon="-0.56051">
        <ele>244.792847</ele>
        <time>2012-06-28T10:52:01Z</time>
      </trkpt>
      <trkpt lat="43.32752" lon="-0.56026">
        <ele>241.428223</ele>
        <time>2012-06-28T10:52:04Z</time>
      </trkpt>
      <trkpt lat="43.3269" lon="-0.5598">
        <ele>239.505493</ele>
        <time>2012-06-28T10:52:11Z</time>
      </trkpt>
      <trkpt lat="43.32672" lon="-0.55962">
        <ele>239.024902</ele>
        <time>2012-06-28T10:52:15Z</time>
      </trkpt>
      <trkpt lat="43.3265" lon="-0.55922">
        <ele>236.621704</ele>
        <time>2012-06-28T10:52:20Z</time>
      </trkpt>
      <trkpt lat="43.32639" lon="-0.55901">
        <ele>234.699097</ele>
        <time>2012-06-28T10:52:22Z</time>
      </trkpt>
      <trkpt lat="43.32634" lon="-0.5589">
        <ele>234.699097</ele>
        <time>2012-06-28T10:52:23Z</time>
      </trkpt>
      <trkpt lat="43.32605" lon="-0.55786">
        <ele>233.25708</ele>
        <time>2012-06-28T10:52:33Z</time>
      </trkpt>
      <trkpt lat="43.32598" lon="-0.5577">
        <ele>232.295776</ele>
        <time>2012-06-28T10:52:35Z</time>
      </trkpt>
      <trkpt lat="43.32571" lon="-0.55746">
        <ele>233.737671</ele>
        <time>2012-06-28T10:52:42Z</time>
      </trkpt>
      <trkpt lat="43.3254" lon="-0.55739">
        <ele>235.660278</ele>
        <time>2012-06-28T10:52:53Z</time>
      </trkpt>
      <trkpt lat="43.3252" lon="-0.55728">
        <ele>235.179688</ele>
        <time>2012-06-28T10:52:59Z</time>
      </trkpt>
      <trkpt lat="43.32466" lon="-0.55682">
        <ele>233.25708</ele>
        <time>2012-06-28T10:53:10Z</time>
      </trkpt>
      <trkpt lat="43.32455" lon="-0.55665">
        <ele>231.334351</ele>
        <time>2012-06-28T10:53:13Z</time>
      </trkpt>
      <trkpt lat="43.32449" lon="-0.55648">
        <ele>230.85376</ele>
        <time>2012-06-28T10:53:16Z</time>
      </trkpt>
      <trkpt lat="43.32428" lon="-0.55611">
        <ele>234.699097</ele>
        <time>2012-06-28T10:53:26Z</time>
      </trkpt>
      <trkpt lat="43.32414" lon="-0.55559">
        <ele>237.582886</ele>
        <time>2012-06-28T10:53:40Z</time>
      </trkpt>
      <trkpt lat="43.32394" lon="-0.55529">
        <ele>239.986206</ele>
        <time>2012-06-28T10:53:53Z</time>
      </trkpt>
      <trkpt lat="43.32367" lon="-0.55516">
        <ele>242.870239</ele>
        <time>2012-06-28T10:54:06Z</time>
      </trkpt>
      <trkpt lat="43.32345" lon="-0.55501">
        <ele>245.273438</ele>
        <time>2012-06-28T10:54:18Z</time>
      </trkpt>
      <trkpt lat="43.32335" lon="-0.55487">
        <ele>245.273438</ele>
        <time>2012-06-28T10:54:25Z</time>
      </trkpt>
      <trkpt lat="43.32309" lon="-0.55452">
        <ele>248.157593</ele>
        <time>2012-06-28T10:54:42Z</time>
      </trkpt>
      <trkpt lat="43.32281" lon="-0.55427">
        <ele>251.041382</ele>
        <time>2012-06-28T10:54:58Z</time>
      </trkpt>
      <trkpt lat="43.32262" lon="-0.55407">
        <ele>253.925415</ele>
        <time>2012-06-28T10:55:09Z</time>
      </trkpt>
      <trkpt lat="43.32229" lon="-0.55376">
        <ele>256.809326</ele>
        <time>2012-06-28T10:55:26Z</time>
      </trkpt>
      <trkpt lat="43.32199" lon="-0.55345">
        <ele>259.212646</ele>
        <time>2012-06-28T10:55:42Z</time>
      </trkpt>
      <trkpt lat="43.32166" lon="-0.55306">
        <ele>260.654541</ele>
        <time>2012-06-28T10:55:59Z</time>
      </trkpt>
      <trkpt lat="43.32124" lon="-0.55288">
        <ele>263.538574</ele>
        <time>2012-06-28T10:56:18Z</time>
      </trkpt>
      <trkpt lat="43.32103" lon="-0.55281">
        <ele>265.941895</ele>
        <time>2012-06-28T10:56:28Z</time>
      </trkpt>
      <trkpt lat="43.32063" lon="-0.55273">
        <ele>268.345093</ele>
        <time>2012-06-28T10:56:44Z</time>
      </trkpt>
      <trkpt lat="43.3204" lon="-0.55314">
        <ele>270.748413</ele>
        <time>2012-06-28T10:56:59Z</time>
      </trkpt>
      <trkpt lat="43.32016" lon="-0.55366">
        <ele>272.671143</ele>
        <time>2012-06-28T10:57:16Z</time>
      </trkpt>
      <trkpt lat="43.31993" lon="-0.55404">
        <ele>274.59375</ele>
        <time>2012-06-28T10:57:33Z</time>
      </trkpt>
      <trkpt lat="43.31969" lon="-0.55451">
        <ele>275.555054</ele>
        <time>2012-06-28T10:57:50Z</time>
      </trkpt>
      <trkpt lat="43.31957" lon="-0.55505">
        <ele>272.671143</ele>
        <time>2012-06-28T10:57:59Z</time>
      </trkpt>
      <trkpt lat="43.31956" lon="-0.55511">
        <ele>272.19043</ele>
        <time>2012-06-28T10:58:00Z</time>
      </trkpt>
      <trkpt lat="43.31949" lon="-0.55549">
        <ele>268.345093</ele>
        <time>2012-06-28T10:58:06Z</time>
      </trkpt>
      <trkpt lat="43.31944" lon="-0.55572">
        <ele>264.499878</ele>
        <time>2012-06-28T10:58:10Z</time>
      </trkpt>
      <trkpt lat="43.31943" lon="-0.55578">
        <ele>264.499878</ele>
        <time>2012-06-28T10:58:11Z</time>
      </trkpt>
      <trkpt lat="43.31939" lon="-0.55608">
        <ele>262.096558</ele>
        <time>2012-06-28T10:58:15Z</time>
      </trkpt>
      <trkpt lat="43.31935" lon="-0.55622">
        <ele>259.693359</ele>
        <time>2012-06-28T10:58:17Z</time>
      </trkpt>
      <trkpt lat="43.31921" lon="-0.55653">
        <ele>259.212646</ele>
        <time>2012-06-28T10:58:22Z</time>
      </trkpt>
      <trkpt lat="43.31915" lon="-0.55675">
        <ele>257.770752</ele>
        <time>2012-06-28T10:58:25Z</time>
      </trkpt>
      <trkpt lat="43.31913" lon="-0.55682">
        <ele>256.328735</ele>
        <time>2012-06-28T10:58:26Z</time>
      </trkpt>
      <trkpt lat="43.3189" lon="-0.5571">
        <ele>251.522095</ele>
        <time>2012-06-28T10:58:31Z</time>
      </trkpt>
      <trkpt lat="43.31878" lon="-0.55721">
        <ele>248.157593</ele>
        <time>2012-06-28T10:58:33Z</time>
      </trkpt>
      <trkpt lat="43.31866" lon="-0.55733">
        <ele>245.273438</ele>
        <time>2012-06-28T10:58:35Z</time>
      </trkpt>
      <trkpt lat="43.31841" lon="-0.55756">
        <ele>241.428223</ele>
        <time>2012-06-28T10:58:39Z</time>
      </trkpt>
      <trkpt lat="43.31814" lon="-0.55762">
        <ele>238.063599</ele>
        <time>2012-06-28T10:58:43Z</time>
      </trkpt>
      <trkpt lat="43.31806" lon="-0.5576">
        <ele>237.102295</ele>
        <time>2012-06-28T10:58:44Z</time>
      </trkpt>
      <trkpt lat="43.31777" lon="-0.55752">
        <ele>231.814941</ele>
        <time>2012-06-28T10:58:48Z</time>
      </trkpt>
      <trkpt lat="43.31766" lon="-0.5575">
        <ele>229.411743</ele>
        <time>2012-06-28T10:58:50Z</time>
      </trkpt>
      <trkpt lat="43.31756" lon="-0.55748">
        <ele>227.489136</ele>
        <time>2012-06-28T10:58:52Z</time>
      </trkpt>
      <trkpt lat="43.31747" lon="-0.55748">
        <ele>226.047119</ele>
        <time>2012-06-28T10:58:54Z</time>
      </trkpt>
      <trkpt lat="43.31737" lon="-0.55752">
        <ele>225.566528</ele>
        <time>2012-06-28T10:58:56Z</time>
      </trkpt>
      <trkpt lat="43.31708" lon="-0.55763">
        <ele>221.721191</ele>
        <time>2012-06-28T10:59:00Z</time>
      </trkpt>
      <trkpt lat="43.31689" lon="-0.55769">
        <ele>219.317993</ele>
        <time>2012-06-28T10:59:02Z</time>
      </trkpt>
      <trkpt lat="43.31652" lon="-0.55797">
        <ele>214.03064</ele>
        <time>2012-06-28T10:59:06Z</time>
      </trkpt>
      <trkpt lat="43.31612" lon="-0.55851">
        <ele>211.146729</ele>
        <time>2012-06-28T10:59:11Z</time>
      </trkpt>
      <trkpt lat="43.31607" lon="-0.55905">
        <ele>207.301392</ele>
        <time>2012-06-28T10:59:15Z</time>
      </trkpt>
      <trkpt lat="43.31608" lon="-0.5596">
        <ele>203.93689</ele>
        <time>2012-06-28T10:59:19Z</time>
      </trkpt>
      <trkpt lat="43.31596" lon="-0.55989">
        <ele>200.091675</ele>
        <time>2012-06-28T10:59:22Z</time>
      </trkpt>
      <trkpt lat="43.31587" lon="-0.55996">
        <ele>197.688232</ele>
        <time>2012-06-28T10:59:23Z</time>
      </trkpt>
      <trkpt lat="43.31561" lon="-0.56024">
        <ele>194.32373</ele>
        <time>2012-06-28T10:59:26Z</time>
      </trkpt>
      <trkpt lat="43.31532" lon="-0.56076">
        <ele>189.516968</ele>
        <time>2012-06-28T10:59:31Z</time>
      </trkpt>
      <trkpt lat="43.31494" lon="-0.56114">
        <ele>186.152466</ele>
        <time>2012-06-28T10:59:38Z</time>
      </trkpt>
      <trkpt lat="43.31481" lon="-0.56124">
        <ele>185.671753</ele>
        <time>2012-06-28T10:59:40Z</time>
      </trkpt>
      <trkpt lat="43.31469" lon="-0.56144">
        <ele>181.345825</ele>
        <time>2012-06-28T10:59:44Z</time>
      </trkpt>
      <trkpt lat="43.31466" lon="-0.56148">
        <ele>181.345825</ele>
        <time>2012-06-28T10:59:45Z</time>
      </trkpt>
      <trkpt lat="43.31459" lon="-0.56153">
        <ele>181.345825</ele>
        <time>2012-06-28T10:59:47Z</time>
      </trkpt>
      <trkpt lat="43.31448" lon="-0.56158">
        <ele>179.903809</ele>
        <time>2012-06-28T10:59:49Z</time>
      </trkpt>
      <trkpt lat="43.31416" lon="-0.56165">
        <ele>178.942627</ele>
        <time>2012-06-28T10:59:54Z</time>
      </trkpt>
      <trkpt lat="43.31367" lon="-0.56193">
        <ele>173.655273</ele>
        <time>2012-06-28T11:00:01Z</time>
      </trkpt>
      <trkpt lat="43.31346" lon="-0.5621">
        <ele>171.732666</ele>
        <time>2012-06-28T11:00:04Z</time>
      </trkpt>
      <trkpt lat="43.31325" lon="-0.56222">
        <ele>167.406738</ele>
        <time>2012-06-28T11:00:07Z</time>
      </trkpt>
      <trkpt lat="43.31315" lon="-0.56228">
        <ele>164.042114</ele>
        <time>2012-06-28T11:00:09Z</time>
      </trkpt>
      <trkpt lat="43.31298" lon="-0.56248">
        <ele>160.67749</ele>
        <time>2012-06-28T11:00:13Z</time>
      </trkpt>
      <trkpt lat="43.31273" lon="-0.56271">
        <ele>154.428955</ele>
        <time>2012-06-28T11:00:17Z</time>
      </trkpt>
      <trkpt lat="43.31232" lon="-0.56332">
        <ele>149.141602</ele>
        <time>2012-06-28T11:00:24Z</time>
      </trkpt>
      <trkpt lat="43.31227" lon="-0.5634">
        <ele>148.661011</ele>
        <time>2012-06-28T11:00:25Z</time>
      </trkpt>
      <trkpt lat="43.31203" lon="-0.56352">
        <ele>146.738403</ele>
        <time>2012-06-28T11:00:29Z</time>
      </trkpt>
      <trkpt lat="43.31172" lon="-0.56342">
        <ele>146.738403</ele>
        <time>2012-06-28T11:00:35Z</time>
      </trkpt>
      <trkpt lat="43.31158" lon="-0.56354">
        <ele>146.738403</ele>
        <time>2012-06-28T11:00:40Z</time>
      </trkpt>
      <trkpt lat="43.31153" lon="-0.56403">
        <ele>145.7771</ele>
        <time>2012-06-28T11:00:48Z</time>
      </trkpt>
      <trkpt lat="43.31142" lon="-0.5651">
        <ele>144.335205</ele>
        <time>2012-06-28T11:01:05Z</time>
      </trkpt>
      <trkpt lat="43.31141" lon="-0.56516">
        <ele>144.815796</ele>
        <time>2012-06-28T11:01:06Z</time>
      </trkpt>
      <trkpt lat="43.31137" lon="-0.56527">
        <ele>143.85437</ele>
        <time>2012-06-28T11:01:08Z</time>
      </trkpt>
      <trkpt lat="43.31106" lon="-0.56582">
        <ele>141.45105</ele>
        <time>2012-06-28T11:01:21Z</time>
      </trkpt>
      <trkpt lat="43.31102" lon="-0.56628">
        <ele>143.373657</ele>
        <time>2012-06-28T11:01:31Z</time>
      </trkpt>
      <trkpt lat="43.31108" lon="-0.56686">
        <ele>141.931763</ele>
        <time>2012-06-28T11:01:44Z</time>
      </trkpt>
      <trkpt lat="43.31135" lon="-0.56704">
        <ele>142.412476</ele>
        <time>2012-06-28T11:01:54Z</time>
      </trkpt>
      <trkpt lat="43.31152" lon="-0.56746">
        <ele>141.45105</ele>
        <time>2012-06-28T11:02:04Z</time>
      </trkpt>
      <trkpt lat="43.31151" lon="-0.5683">
        <ele>140.489868</ele>
        <time>2012-06-28T11:02:20Z</time>
      </trkpt>
      <trkpt lat="43.31162" lon="-0.56843">
        <ele>141.45105</ele>
        <time>2012-06-28T11:02:25Z</time>
      </trkpt>
      <trkpt lat="43.31229" lon="-0.56844">
        <ele>141.45105</ele>
        <time>2012-06-28T11:02:43Z</time>
      </trkpt>
      <trkpt lat="43.31252" lon="-0.56844">
        <ele>141.45105</ele>
        <time>2012-06-28T11:02:50Z</time>
      </trkpt>
      <trkpt lat="43.31251" lon="-0.56864">
        <ele>140.489868</ele>
        <time>2012-06-28T11:02:59Z</time>
      </trkpt>
      <trkpt lat="43.31244" lon="-0.56865">
        <ele>140.489868</ele>
        <time>2012-06-28T11:03:01Z</time>
      </trkpt>
      <trkpt lat="43.31209" lon="-0.56881">
        <ele>141.45105</ele>
        <time>2012-06-28T11:03:12Z</time>
      </trkpt>
      <trkpt lat="43.31171" lon="-0.56877">
        <ele>140.970459</ele>
        <time>2012-06-28T11:03:24Z</time>
      </trkpt>
      <trkpt lat="43.31135" lon="-0.56862">
        <ele>140.970459</ele>
        <time>2012-06-28T11:03:34Z</time>
      </trkpt>
      <trkpt lat="43.31086" lon="-0.56834">
        <ele>140.970459</ele>
        <time>2012-06-28T11:03:46Z</time>
      </trkpt>
      <trkpt lat="43.31066" lon="-0.56845">
        <ele>141.45105</ele>
        <time>2012-06-28T11:03:51Z</time>
      </trkpt>
      <trkpt lat="43.31022" lon="-0.56906">
        <ele>144.815796</ele>
        <time>2012-06-28T11:04:09Z</time>
      </trkpt>
      <trkpt lat="43.30973" lon="-0.56978">
        <ele>146.257812</ele>
        <time>2012-06-28T11:04:30Z</time>
      </trkpt>
      <trkpt lat="43.30963" lon="-0.57027">
        <ele>149.141602</ele>
        <time>2012-06-28T11:04:41Z</time>
      </trkpt>
      <trkpt lat="43.30966" lon="-0.57092">
        <ele>150.583618</ele>
        <time>2012-06-28T11:04:57Z</time>
      </trkpt>
      <trkpt lat="43.30977" lon="-0.57185">
        <ele>152.986938</ele>
        <time>2012-06-28T11:05:20Z</time>
      </trkpt>
      <trkpt lat="43.30994" lon="-0.57251">
        <ele>154.428955</ele>
        <time>2012-06-28T11:05:37Z</time>
      </trkpt>
      <trkpt lat="43.30981" lon="-0.57292">
        <ele>155.390259</ele>
        <time>2012-06-28T11:05:48Z</time>
      </trkpt>
      <trkpt lat="43.3098" lon="-0.57351">
        <ele>157.312866</ele>
        <time>2012-06-28T11:06:02Z</time>
      </trkpt>
      <trkpt lat="43.30984" lon="-0.57402">
        <ele>159.235474</ele>
        <time>2012-06-28T11:06:15Z</time>
      </trkpt>
      <trkpt lat="43.3099" lon="-0.57449">
        <ele>159.716187</ele>
        <time>2012-06-28T11:06:27Z</time>
      </trkpt>
      <trkpt lat="43.31009" lon="-0.575">
        <ele>161.158203</ele>
        <time>2012-06-28T11:06:41Z</time>
      </trkpt>
      <trkpt lat="43.31043" lon="-0.57559">
        <ele>164.042114</ele>
        <time>2012-06-28T11:07:01Z</time>
      </trkpt>
      <trkpt lat="43.31052" lon="-0.57581">
        <ele>166.445312</ele>
        <time>2012-06-28T11:07:10Z</time>
      </trkpt>
      <trkpt lat="43.31049" lon="-0.57612">
        <ele>168.368042</ele>
        <time>2012-06-28T11:07:23Z</time>
      </trkpt>
      <trkpt lat="43.31032" lon="-0.57659">
        <ele>170.771362</ele>
        <time>2012-06-28T11:07:40Z</time>
      </trkpt>
      <trkpt lat="43.31055" lon="-0.57691">
        <ele>171.252075</ele>
        <time>2012-06-28T11:07:49Z</time>
      </trkpt>
      <trkpt lat="43.31121" lon="-0.57714">
        <ele>169.810059</ele>
        <time>2012-06-28T11:08:06Z</time>
      </trkpt>
      <trkpt lat="43.31178" lon="-0.57731">
        <ele>168.368042</ele>
        <time>2012-06-28T11:08:21Z</time>
      </trkpt>
      <trkpt lat="43.31265" lon="-0.57734">
        <ele>165.484131</ele>
        <time>2012-06-28T11:08:36Z</time>
      </trkpt>
      <trkpt lat="43.31349" lon="-0.57733">
        <ele>164.522705</ele>
        <time>2012-06-28T11:08:49Z</time>
      </trkpt>
      <trkpt lat="43.31414" lon="-0.57734">
        <ele>165.003418</ele>
        <time>2012-06-28T11:09:03Z</time>
      </trkpt>
      <trkpt lat="43.31429" lon="-0.57738">
        <ele>164.042114</ele>
        <time>2012-06-28T11:09:06Z</time>
      </trkpt>
      <trkpt lat="43.31443" lon="-0.57744">
        <ele>163.561523</ele>
        <time>2012-06-28T11:09:09Z</time>
      </trkpt>
      <trkpt lat="43.31473" lon="-0.57765">
        <ele>163.561523</ele>
        <time>2012-06-28T11:09:16Z</time>
      </trkpt>
      <trkpt lat="43.31494" lon="-0.57782">
        <ele>164.522705</ele>
        <time>2012-06-28T11:09:21Z</time>
      </trkpt>
      <trkpt lat="43.31517" lon="-0.57798">
        <ele>162.600098</ele>
        <time>2012-06-28T11:09:26Z</time>
      </trkpt>
      <trkpt lat="43.31524" lon="-0.5783">
        <ele>163.080811</ele>
        <time>2012-06-28T11:09:32Z</time>
      </trkpt>
      <trkpt lat="43.31519" lon="-0.57846">
        <ele>164.522705</ele>
        <time>2012-06-28T11:09:36Z</time>
      </trkpt>
      <trkpt lat="43.31502" lon="-0.57891">
        <ele>167.887329</ele>
        <time>2012-06-28T11:09:52Z</time>
      </trkpt>
      <trkpt lat="43.31493" lon="-0.5792">
        <ele>171.252075</ele>
        <time>2012-06-28T11:10:03Z</time>
      </trkpt>
      <trkpt lat="43.3149" lon="-0.57932">
        <ele>172.213257</ele>
        <time>2012-06-28T11:10:08Z</time>
      </trkpt>
      <trkpt lat="43.31481" lon="-0.57963">
        <ele>175.577881</ele>
        <time>2012-06-28T11:10:22Z</time>
      </trkpt>
      <trkpt lat="43.3147" lon="-0.57993">
        <ele>178.461914</ele>
        <time>2012-06-28T11:10:36Z</time>
      </trkpt>
      <trkpt lat="43.31456" lon="-0.58016">
        <ele>181.826416</ele>
        <time>2012-06-28T11:10:49Z</time>
      </trkpt>
      <trkpt lat="43.3144" lon="-0.58045">
        <ele>185.191162</ele>
        <time>2012-06-28T11:11:02Z</time>
      </trkpt>
      <trkpt lat="43.31412" lon="-0.58084">
        <ele>187.59436</ele>
        <time>2012-06-28T11:11:21Z</time>
      </trkpt>
      <trkpt lat="43.31374" lon="-0.58136">
        <ele>188.075073</ele>
        <time>2012-06-28T11:11:43Z</time>
      </trkpt>
      <trkpt lat="43.31343" lon="-0.58178">
        <ele>190.478394</ele>
        <time>2012-06-28T11:12:00Z</time>
      </trkpt>
      <trkpt lat="43.31319" lon="-0.58213">
        <ele>193.362305</ele>
        <time>2012-06-28T11:12:15Z</time>
      </trkpt>
      <trkpt lat="43.31298" lon="-0.58259">
        <ele>196.246338</ele>
        <time>2012-06-28T11:12:32Z</time>
      </trkpt>
      <trkpt lat="43.31267" lon="-0.58317">
        <ele>199.130127</ele>
        <time>2012-06-28T11:12:54Z</time>
      </trkpt>
      <trkpt lat="43.3125" lon="-0.58346">
        <ele>202.494873</ele>
        <time>2012-06-28T11:13:06Z</time>
      </trkpt>
      <trkpt lat="43.31241" lon="-0.58379">
        <ele>205.378784</ele>
        <time>2012-06-28T11:13:18Z</time>
      </trkpt>
      <trkpt lat="43.31227" lon="-0.58424">
        <ele>208.743408</ele>
        <time>2012-06-28T11:13:36Z</time>
      </trkpt>
      <trkpt lat="43.3121" lon="-0.58466">
        <ele>212.108032</ele>
        <time>2012-06-28T11:13:53Z</time>
      </trkpt>
      <trkpt lat="43.31195" lon="-0.58499">
        <ele>214.991943</ele>
        <time>2012-06-28T11:14:07Z</time>
      </trkpt>
      <trkpt lat="43.31187" lon="-0.58512">
        <ele>215.953247</ele>
        <time>2012-06-28T11:14:13Z</time>
      </trkpt>
      <trkpt lat="43.31168" lon="-0.5854">
        <ele>218.83728</ele>
        <time>2012-06-28T11:14:26Z</time>
      </trkpt>
      <trkpt lat="43.31171" lon="-0.58549">
        <ele>220.279175</ele>
        <time>2012-06-28T11:14:31Z</time>
      </trkpt>
      <trkpt lat="43.31204" lon="-0.58557">
        <ele>219.317993</ele>
        <time>2012-06-28T11:14:44Z</time>
      </trkpt>
      <trkpt lat="43.3128" lon="-0.58579">
        <ele>215.953247</ele>
        <time>2012-06-28T11:14:58Z</time>
      </trkpt>
      <trkpt lat="43.31305" lon="-0.5859">
        <ele>214.03064</ele>
        <time>2012-06-28T11:15:02Z</time>
      </trkpt>
      <trkpt lat="43.31323" lon="-0.58598">
        <ele>214.51123</ele>
        <time>2012-06-28T11:15:05Z</time>
      </trkpt>
      <trkpt lat="43.31395" lon="-0.58605">
        <ele>214.03064</ele>
        <time>2012-06-28T11:15:20Z</time>
      </trkpt>
      <trkpt lat="43.31404" lon="-0.58604">
        <ele>213.550049</ele>
        <time>2012-06-28T11:15:22Z</time>
      </trkpt>
      <trkpt lat="43.31413" lon="-0.58602">
        <ele>213.069336</ele>
        <time>2012-06-28T11:15:24Z</time>
      </trkpt>
      <trkpt lat="43.31428" lon="-0.58595">
        <ele>212.108032</ele>
        <time>2012-06-28T11:15:27Z</time>
      </trkpt>
      <trkpt lat="43.31495" lon="-0.58544">
        <ele>208.743408</ele>
        <time>2012-06-28T11:15:37Z</time>
      </trkpt>
      <trkpt lat="43.31503" lon="-0.5854">
        <ele>208.262817</ele>
        <time>2012-06-28T11:15:38Z</time>
      </trkpt>
      <trkpt lat="43.3152" lon="-0.58535">
        <ele>207.301392</ele>
        <time>2012-06-28T11:15:40Z</time>
      </trkpt>
      <trkpt lat="43.31537" lon="-0.58533">
        <ele>204.898071</ele>
        <time>2012-06-28T11:15:42Z</time>
      </trkpt>
      <trkpt lat="43.31564" lon="-0.58535">
        <ele>199.61084</ele>
        <time>2012-06-28T11:15:46Z</time>
      </trkpt>
      <trkpt lat="43.31569" lon="-0.58535">
        <ele>198.649536</ele>
        <time>2012-06-28T11:15:47Z</time>
      </trkpt>
      <trkpt lat="43.31577" lon="-0.58537">
        <ele>197.688232</ele>
        <time>2012-06-28T11:15:49Z</time>
      </trkpt>
      <trkpt lat="43.31586" lon="-0.58566">
        <ele>198.649536</ele>
        <time>2012-06-28T11:15:54Z</time>
      </trkpt>
      <trkpt lat="43.31588" lon="-0.58598">
        <ele>199.61084</ele>
        <time>2012-06-28T11:16:00Z</time>
      </trkpt>
      <trkpt lat="43.31585" lon="-0.58632">
        <ele>201.533569</ele>
        <time>2012-06-28T11:16:06Z</time>
      </trkpt>
      <trkpt lat="43.31574" lon="-0.58655">
        <ele>203.456177</ele>
        <time>2012-06-28T11:16:16Z</time>
      </trkpt>
      <trkpt lat="43.31574" lon="-0.58656">
        <ele>203.93689</ele>
        <time>2012-06-28T11:16:17Z</time>
      </trkpt>
      <trkpt lat="43.31573" lon="-0.58656">
        <ele>202.494873</ele>
        <time>2012-06-28T11:16:37Z</time>
      </trkpt>
      <trkpt lat="43.31575" lon="-0.58655">
        <ele>200.572266</ele>
        <time>2012-06-28T11:16:53Z</time>
      </trkpt>
    </trkseg>
  </trk>
</gpx>